<?xml version="1.0" encoding="UTF-8" standalone="no" ?>
<gpx xmlns="http://www.topografix.com/GPX/1/1" xmlns:xsi="http://www.w3.org/2001/XMLSchema-instance" xsi:schemaLocation="http://www.topografix.com/GPX/1/1 http://www.topografix.com/GPX/1/1/gpx.xsd" version="1.1" creator="VisuGPX - https://www.visugpx.com">
  <metadata>
    <name>juvignac st georges murviel oppidum</name>
    <desc><![CDATA[départ cave coop celleneuve]]></desc>
  </metadata>
  <trk>
    <name><![CDATA[juvignac st georges murviel oppidum]]></name>
    <extensions>
      <line xmlns="http://www.topografix.com/GPX/gpx_style/0/2">
        <color>0000FF</color>
        <width>4</width>
      </line>
    </extensions>
    <trkseg>
      <trkpt lat="43.61166" lon="3.82786">
        <ele>55.3</ele>
        <time>2022-05-10T05:51:07Z</time>
      </trkpt>
      <trkpt lat="43.61175" lon="3.82721">
        <ele>54.7</ele>
        <time>2022-05-10T05:51:17Z</time>
      </trkpt>
      <trkpt lat="43.61186" lon="3.82657">
        <ele>54.7</ele>
        <time>2022-05-10T05:51:27Z</time>
      </trkpt>
      <trkpt lat="43.61197" lon="3.82586">
        <ele>54.3</ele>
        <time>2022-05-10T05:51:37Z</time>
      </trkpt>
      <trkpt lat="43.61221" lon="3.82538">
        <ele>54</ele>
        <time>2022-05-10T05:51:47Z</time>
      </trkpt>
      <trkpt lat="43.61266" lon="3.82512">
        <ele>51.7</ele>
        <time>2022-05-10T05:51:57Z</time>
      </trkpt>
      <trkpt lat="43.61301" lon="3.82466">
        <ele>50.1</ele>
        <time>2022-05-10T05:52:07Z</time>
      </trkpt>
      <trkpt lat="43.61309" lon="3.82417">
        <ele>49.3</ele>
        <time>2022-05-10T05:52:17Z</time>
      </trkpt>
      <trkpt lat="43.61305" lon="3.82345">
        <ele>50.8</ele>
        <time>2022-05-10T05:52:27Z</time>
      </trkpt>
      <trkpt lat="43.61335" lon="3.82296">
        <ele>51.6</ele>
        <time>2022-05-10T05:52:37Z</time>
      </trkpt>
      <trkpt lat="43.61393" lon="3.82257">
        <ele>45.5</ele>
        <time>2022-05-10T05:52:47Z</time>
      </trkpt>
      <trkpt lat="43.6144" lon="3.82223">
        <ele>43.1</ele>
        <time>2022-05-10T05:52:57Z</time>
      </trkpt>
      <trkpt lat="43.61491" lon="3.82208">
        <ele>43.8</ele>
        <time>2022-05-10T05:53:07Z</time>
      </trkpt>
      <trkpt lat="43.61515" lon="3.82193">
        <ele>43.9</ele>
        <time>2022-05-10T05:53:17Z</time>
      </trkpt>
      <trkpt lat="43.61543" lon="3.82168">
        <ele>43.1</ele>
        <time>2022-05-10T05:53:27Z</time>
      </trkpt>
      <trkpt lat="43.61549" lon="3.82111">
        <ele>42</ele>
        <time>2022-05-10T05:54:07Z</time>
      </trkpt>
      <trkpt lat="43.61556" lon="3.82048">
        <ele>41.5</ele>
        <time>2022-05-10T05:54:27Z</time>
      </trkpt>
      <trkpt lat="43.61555" lon="3.81998">
        <ele>39</ele>
        <time>2022-05-10T05:54:37Z</time>
      </trkpt>
      <trkpt lat="43.61593" lon="3.81966">
        <ele>39.9</ele>
        <time>2022-05-10T05:54:47Z</time>
      </trkpt>
      <trkpt lat="43.61581" lon="3.8191">
        <ele>38.9</ele>
        <time>2022-05-10T05:54:57Z</time>
      </trkpt>
      <trkpt lat="43.61565" lon="3.81848">
        <ele>37.3</ele>
        <time>2022-05-10T05:55:07Z</time>
      </trkpt>
      <trkpt lat="43.61549" lon="3.81785">
        <ele>36</ele>
        <time>2022-05-10T05:55:17Z</time>
      </trkpt>
      <trkpt lat="43.61533" lon="3.81726">
        <ele>32.9</ele>
        <time>2022-05-10T05:55:27Z</time>
      </trkpt>
      <trkpt lat="43.61515" lon="3.81662">
        <ele>36</ele>
        <time>2022-05-10T05:55:37Z</time>
      </trkpt>
      <trkpt lat="43.61497" lon="3.81588">
        <ele>38</ele>
        <time>2022-05-10T05:55:47Z</time>
      </trkpt>
      <trkpt lat="43.61489" lon="3.81528">
        <ele>39.6</ele>
        <time>2022-05-10T05:55:57Z</time>
      </trkpt>
      <trkpt lat="43.61479" lon="3.81519">
        <ele>40.3</ele>
        <time>2022-05-10T05:56:07Z</time>
      </trkpt>
      <trkpt lat="43.61463" lon="3.81493">
        <ele>42.2</ele>
        <time>2022-05-10T05:56:17Z</time>
      </trkpt>
      <trkpt lat="43.61448" lon="3.81441">
        <ele>41.8</ele>
        <time>2022-05-10T05:56:27Z</time>
      </trkpt>
      <trkpt lat="43.61434" lon="3.81387">
        <ele>43.9</ele>
        <time>2022-05-10T05:56:37Z</time>
      </trkpt>
      <trkpt lat="43.61419" lon="3.81326">
        <ele>44.4</ele>
        <time>2022-05-10T05:56:47Z</time>
      </trkpt>
      <trkpt lat="43.61408" lon="3.81266">
        <ele>46.1</ele>
        <time>2022-05-10T05:56:57Z</time>
      </trkpt>
      <trkpt lat="43.61406" lon="3.8121">
        <ele>47.4</ele>
        <time>2022-05-10T05:57:07Z</time>
      </trkpt>
      <trkpt lat="43.61405" lon="3.81154">
        <ele>48.6</ele>
        <time>2022-05-10T05:57:17Z</time>
      </trkpt>
      <trkpt lat="43.61405" lon="3.811">
        <ele>49.6</ele>
        <time>2022-05-10T05:57:27Z</time>
      </trkpt>
      <trkpt lat="43.61415" lon="3.81059">
        <ele>50.8</ele>
        <time>2022-05-10T05:57:37Z</time>
      </trkpt>
      <trkpt lat="43.61396" lon="3.8101">
        <ele>51.4</ele>
        <time>2022-05-10T05:57:47Z</time>
      </trkpt>
      <trkpt lat="43.61391" lon="3.80958">
        <ele>52.7</ele>
        <time>2022-05-10T05:57:57Z</time>
      </trkpt>
      <trkpt lat="43.61387" lon="3.80907">
        <ele>54.3</ele>
        <time>2022-05-10T05:58:07Z</time>
      </trkpt>
      <trkpt lat="43.61383" lon="3.80851">
        <ele>55</ele>
        <time>2022-05-10T05:58:17Z</time>
      </trkpt>
      <trkpt lat="43.6138" lon="3.80788">
        <ele>54.7</ele>
        <time>2022-05-10T05:58:27Z</time>
      </trkpt>
      <trkpt lat="43.61384" lon="3.80724">
        <ele>54.6</ele>
        <time>2022-05-10T05:58:37Z</time>
      </trkpt>
      <trkpt lat="43.61391" lon="3.8066">
        <ele>55.1</ele>
        <time>2022-05-10T05:58:47Z</time>
      </trkpt>
      <trkpt lat="43.61396" lon="3.80598">
        <ele>56.3</ele>
        <time>2022-05-10T05:58:57Z</time>
      </trkpt>
      <trkpt lat="43.61395" lon="3.80538">
        <ele>57.5</ele>
        <time>2022-05-10T05:59:07Z</time>
      </trkpt>
      <trkpt lat="43.61399" lon="3.8048">
        <ele>58</ele>
        <time>2022-05-10T05:59:17Z</time>
      </trkpt>
      <trkpt lat="43.61403" lon="3.80425">
        <ele>58.8</ele>
        <time>2022-05-10T05:59:27Z</time>
      </trkpt>
      <trkpt lat="43.61407" lon="3.8037">
        <ele>60.4</ele>
        <time>2022-05-10T05:59:37Z</time>
      </trkpt>
      <trkpt lat="43.61411" lon="3.80317">
        <ele>60.9</ele>
        <time>2022-05-10T05:59:47Z</time>
      </trkpt>
      <trkpt lat="43.61415" lon="3.80263">
        <ele>61.6</ele>
        <time>2022-05-10T05:59:57Z</time>
      </trkpt>
      <trkpt lat="43.61425" lon="3.80207">
        <ele>62.9</ele>
        <time>2022-05-10T06:00:07Z</time>
      </trkpt>
      <trkpt lat="43.61436" lon="3.80153">
        <ele>64</ele>
        <time>2022-05-10T06:00:17Z</time>
      </trkpt>
      <trkpt lat="43.61448" lon="3.80099">
        <ele>65.1</ele>
        <time>2022-05-10T06:00:27Z</time>
      </trkpt>
      <trkpt lat="43.61467" lon="3.8006">
        <ele>66</ele>
        <time>2022-05-10T06:00:37Z</time>
      </trkpt>
      <trkpt lat="43.61442" lon="3.80027">
        <ele>65.8</ele>
        <time>2022-05-10T06:00:47Z</time>
      </trkpt>
      <trkpt lat="43.61405" lon="3.79928">
        <ele>63.8</ele>
        <time>2022-05-10T06:00:57Z</time>
      </trkpt>
      <trkpt lat="43.61389" lon="3.79852">
        <ele>62</ele>
        <time>2022-05-10T06:01:07Z</time>
      </trkpt>
      <trkpt lat="43.61411" lon="3.79755">
        <ele>58.5</ele>
        <time>2022-05-10T06:01:17Z</time>
      </trkpt>
      <trkpt lat="43.61442" lon="3.79648">
        <ele>54.6</ele>
        <time>2022-05-10T06:01:27Z</time>
      </trkpt>
      <trkpt lat="43.61454" lon="3.79539">
        <ele>52.3</ele>
        <time>2022-05-10T06:01:37Z</time>
      </trkpt>
      <trkpt lat="43.61463" lon="3.79441">
        <ele>52.4</ele>
        <time>2022-05-10T06:01:47Z</time>
      </trkpt>
      <trkpt lat="43.61482" lon="3.7936">
        <ele>52.7</ele>
        <time>2022-05-10T06:01:57Z</time>
      </trkpt>
      <trkpt lat="43.61505" lon="3.79287">
        <ele>53.8</ele>
        <time>2022-05-10T06:02:07Z</time>
      </trkpt>
      <trkpt lat="43.61523" lon="3.7922">
        <ele>55.9</ele>
        <time>2022-05-10T06:02:17Z</time>
      </trkpt>
      <trkpt lat="43.6154" lon="3.79162">
        <ele>55.5</ele>
        <time>2022-05-10T06:02:27Z</time>
      </trkpt>
      <trkpt lat="43.61549" lon="3.79115">
        <ele>55.9</ele>
        <time>2022-05-10T06:02:37Z</time>
      </trkpt>
      <trkpt lat="43.61559" lon="3.79065">
        <ele>57.2</ele>
        <time>2022-05-10T06:02:47Z</time>
      </trkpt>
      <trkpt lat="43.61566" lon="3.79017">
        <ele>58.6</ele>
        <time>2022-05-10T06:02:57Z</time>
      </trkpt>
      <trkpt lat="43.61565" lon="3.78956">
        <ele>58.7</ele>
        <time>2022-05-10T06:03:07Z</time>
      </trkpt>
      <trkpt lat="43.61557" lon="3.78906">
        <ele>57</ele>
        <time>2022-05-10T06:03:17Z</time>
      </trkpt>
      <trkpt lat="43.61547" lon="3.78852">
        <ele>59.8</ele>
        <time>2022-05-10T06:03:27Z</time>
      </trkpt>
      <trkpt lat="43.61553" lon="3.788">
        <ele>59.5</ele>
        <time>2022-05-10T06:03:37Z</time>
      </trkpt>
      <trkpt lat="43.61572" lon="3.78761">
        <ele>60.1</ele>
        <time>2022-05-10T06:03:47Z</time>
      </trkpt>
      <trkpt lat="43.61586" lon="3.78731">
        <ele>62.3</ele>
        <time>2022-05-10T06:03:57Z</time>
      </trkpt>
      <trkpt lat="43.61605" lon="3.78706">
        <ele>63.9</ele>
        <time>2022-05-10T06:04:07Z</time>
      </trkpt>
      <trkpt lat="43.61621" lon="3.7868">
        <ele>65.9</ele>
        <time>2022-05-10T06:04:17Z</time>
      </trkpt>
      <trkpt lat="43.61634" lon="3.78659">
        <ele>67.6</ele>
        <time>2022-05-10T06:04:27Z</time>
      </trkpt>
      <trkpt lat="43.61655" lon="3.78635">
        <ele>69.3</ele>
        <time>2022-05-10T06:04:37Z</time>
      </trkpt>
      <trkpt lat="43.61669" lon="3.78613">
        <ele>70.7</ele>
        <time>2022-05-10T06:04:47Z</time>
      </trkpt>
      <trkpt lat="43.61679" lon="3.78592">
        <ele>73</ele>
        <time>2022-05-10T06:04:57Z</time>
      </trkpt>
      <trkpt lat="43.61692" lon="3.78568">
        <ele>74.8</ele>
        <time>2022-05-10T06:05:07Z</time>
      </trkpt>
      <trkpt lat="43.61704" lon="3.78545">
        <ele>76.8</ele>
        <time>2022-05-10T06:05:17Z</time>
      </trkpt>
      <trkpt lat="43.61713" lon="3.78522">
        <ele>78.5</ele>
        <time>2022-05-10T06:05:27Z</time>
      </trkpt>
      <trkpt lat="43.61722" lon="3.78495">
        <ele>80.2</ele>
        <time>2022-05-10T06:05:37Z</time>
      </trkpt>
      <trkpt lat="43.61729" lon="3.78463">
        <ele>80.8</ele>
        <time>2022-05-10T06:05:47Z</time>
      </trkpt>
      <trkpt lat="43.61728" lon="3.78419">
        <ele>81</ele>
        <time>2022-05-10T06:05:57Z</time>
      </trkpt>
      <trkpt lat="43.61716" lon="3.78347">
        <ele>79.6</ele>
        <time>2022-05-10T06:06:07Z</time>
      </trkpt>
      <trkpt lat="43.61721" lon="3.78287">
        <ele>80.8</ele>
        <time>2022-05-10T06:06:17Z</time>
      </trkpt>
      <trkpt lat="43.61731" lon="3.78243">
        <ele>82.5</ele>
        <time>2022-05-10T06:06:27Z</time>
      </trkpt>
      <trkpt lat="43.61742" lon="3.78193">
        <ele>83</ele>
        <time>2022-05-10T06:06:37Z</time>
      </trkpt>
      <trkpt lat="43.61755" lon="3.78142">
        <ele>84.2</ele>
        <time>2022-05-10T06:06:47Z</time>
      </trkpt>
      <trkpt lat="43.61774" lon="3.78093">
        <ele>85.3</ele>
        <time>2022-05-10T06:06:57Z</time>
      </trkpt>
      <trkpt lat="43.61808" lon="3.78054">
        <ele>84.9</ele>
        <time>2022-05-10T06:07:07Z</time>
      </trkpt>
      <trkpt lat="43.61831" lon="3.78001">
        <ele>87</ele>
        <time>2022-05-10T06:07:17Z</time>
      </trkpt>
      <trkpt lat="43.61838" lon="3.77949">
        <ele>89.5</ele>
        <time>2022-05-10T06:07:27Z</time>
      </trkpt>
      <trkpt lat="43.61837" lon="3.77896">
        <ele>90.8</ele>
        <time>2022-05-10T06:07:37Z</time>
      </trkpt>
      <trkpt lat="43.61829" lon="3.77866">
        <ele>91.4</ele>
        <time>2022-05-10T06:07:47Z</time>
      </trkpt>
      <trkpt lat="43.61805" lon="3.77863">
        <ele>94</ele>
        <time>2022-05-10T06:07:57Z</time>
      </trkpt>
      <trkpt lat="43.6179" lon="3.77842">
        <ele>96.1</ele>
        <time>2022-05-10T06:08:07Z</time>
      </trkpt>
      <trkpt lat="43.618" lon="3.77801">
        <ele>95.9</ele>
        <time>2022-05-10T06:08:17Z</time>
      </trkpt>
      <trkpt lat="43.61811" lon="3.77755">
        <ele>96.2</ele>
        <time>2022-05-10T06:08:27Z</time>
      </trkpt>
      <trkpt lat="43.61823" lon="3.7771">
        <ele>96.8</ele>
        <time>2022-05-10T06:08:37Z</time>
      </trkpt>
      <trkpt lat="43.61831" lon="3.77667">
        <ele>98.2</ele>
        <time>2022-05-10T06:08:47Z</time>
      </trkpt>
      <trkpt lat="43.61848" lon="3.77626">
        <ele>97.6</ele>
        <time>2022-05-10T06:08:57Z</time>
      </trkpt>
      <trkpt lat="43.61858" lon="3.77583">
        <ele>99.2</ele>
        <time>2022-05-10T06:09:07Z</time>
      </trkpt>
      <trkpt lat="43.61872" lon="3.77542">
        <ele>99.9</ele>
        <time>2022-05-10T06:09:17Z</time>
      </trkpt>
      <trkpt lat="43.61886" lon="3.77495">
        <ele>100.6</ele>
        <time>2022-05-10T06:09:27Z</time>
      </trkpt>
      <trkpt lat="43.619" lon="3.77452">
        <ele>101.5</ele>
        <time>2022-05-10T06:09:37Z</time>
      </trkpt>
      <trkpt lat="43.61912" lon="3.77418">
        <ele>102.4</ele>
        <time>2022-05-10T06:09:47Z</time>
      </trkpt>
      <trkpt lat="43.6193" lon="3.77375">
        <ele>104.3</ele>
        <time>2022-05-10T06:09:57Z</time>
      </trkpt>
      <trkpt lat="43.61946" lon="3.77334">
        <ele>103.9</ele>
        <time>2022-05-10T06:10:07Z</time>
      </trkpt>
      <trkpt lat="43.61963" lon="3.77288">
        <ele>106.8</ele>
        <time>2022-05-10T06:10:17Z</time>
      </trkpt>
      <trkpt lat="43.61982" lon="3.77241">
        <ele>106.1</ele>
        <time>2022-05-10T06:10:27Z</time>
      </trkpt>
      <trkpt lat="43.62002" lon="3.77195">
        <ele>105.5</ele>
        <time>2022-05-10T06:10:37Z</time>
      </trkpt>
      <trkpt lat="43.62021" lon="3.7715">
        <ele>104.2</ele>
        <time>2022-05-10T06:10:47Z</time>
      </trkpt>
      <trkpt lat="43.6204" lon="3.77103">
        <ele>103.2</ele>
        <time>2022-05-10T06:10:57Z</time>
      </trkpt>
      <trkpt lat="43.62059" lon="3.77057">
        <ele>108.7</ele>
        <time>2022-05-10T06:11:07Z</time>
      </trkpt>
      <trkpt lat="43.62077" lon="3.77013">
        <ele>111</ele>
        <time>2022-05-10T06:11:17Z</time>
      </trkpt>
      <trkpt lat="43.62096" lon="3.7697">
        <ele>113.2</ele>
        <time>2022-05-10T06:11:27Z</time>
      </trkpt>
      <trkpt lat="43.62113" lon="3.76927">
        <ele>113.3</ele>
        <time>2022-05-10T06:11:37Z</time>
      </trkpt>
      <trkpt lat="43.62129" lon="3.76882">
        <ele>114.1</ele>
        <time>2022-05-10T06:11:47Z</time>
      </trkpt>
      <trkpt lat="43.62144" lon="3.76836">
        <ele>114.4</ele>
        <time>2022-05-10T06:11:57Z</time>
      </trkpt>
      <trkpt lat="43.62153" lon="3.76795">
        <ele>116</ele>
        <time>2022-05-10T06:12:07Z</time>
      </trkpt>
      <trkpt lat="43.62168" lon="3.76743">
        <ele>115.3</ele>
        <time>2022-05-10T06:12:17Z</time>
      </trkpt>
      <trkpt lat="43.62183" lon="3.76693">
        <ele>116.8</ele>
        <time>2022-05-10T06:12:27Z</time>
      </trkpt>
      <trkpt lat="43.62198" lon="3.76646">
        <ele>117.2</ele>
        <time>2022-05-10T06:12:37Z</time>
      </trkpt>
      <trkpt lat="43.62211" lon="3.76602">
        <ele>117.7</ele>
        <time>2022-05-10T06:12:47Z</time>
      </trkpt>
      <trkpt lat="43.6222" lon="3.76553">
        <ele>119.6</ele>
        <time>2022-05-10T06:12:57Z</time>
      </trkpt>
      <trkpt lat="43.62237" lon="3.76503">
        <ele>118.3</ele>
        <time>2022-05-10T06:13:07Z</time>
      </trkpt>
      <trkpt lat="43.62246" lon="3.76448">
        <ele>120.2</ele>
        <time>2022-05-10T06:13:17Z</time>
      </trkpt>
      <trkpt lat="43.62254" lon="3.76395">
        <ele>121.1</ele>
        <time>2022-05-10T06:13:27Z</time>
      </trkpt>
      <trkpt lat="43.62263" lon="3.76342">
        <ele>121</ele>
        <time>2022-05-10T06:13:37Z</time>
      </trkpt>
      <trkpt lat="43.6227" lon="3.7629">
        <ele>122.1</ele>
        <time>2022-05-10T06:13:47Z</time>
      </trkpt>
      <trkpt lat="43.62274" lon="3.76242">
        <ele>123.5</ele>
        <time>2022-05-10T06:13:57Z</time>
      </trkpt>
      <trkpt lat="43.62272" lon="3.76207">
        <ele>123.9</ele>
        <time>2022-05-10T06:14:07Z</time>
      </trkpt>
      <trkpt lat="43.62251" lon="3.76211">
        <ele>123.6</ele>
        <time>2022-05-10T06:14:17Z</time>
      </trkpt>
      <trkpt lat="43.62231" lon="3.76213">
        <ele>124.8</ele>
        <time>2022-05-10T06:14:27Z</time>
      </trkpt>
      <trkpt lat="43.62214" lon="3.76214">
        <ele>126.5</ele>
        <time>2022-05-10T06:14:37Z</time>
      </trkpt>
      <trkpt lat="43.62203" lon="3.76212">
        <ele>127.8</ele>
        <time>2022-05-10T06:14:47Z</time>
      </trkpt>
      <trkpt lat="43.62192" lon="3.76208">
        <ele>128.9</ele>
        <time>2022-05-10T06:14:57Z</time>
      </trkpt>
      <trkpt lat="43.62185" lon="3.76223">
        <ele>131.4</ele>
        <time>2022-05-10T06:15:07Z</time>
      </trkpt>
      <trkpt lat="43.62181" lon="3.76239">
        <ele>132.8</ele>
        <time>2022-05-10T06:15:17Z</time>
      </trkpt>
      <trkpt lat="43.62172" lon="3.76249">
        <ele>135</ele>
        <time>2022-05-10T06:15:27Z</time>
      </trkpt>
      <trkpt lat="43.62161" lon="3.76259">
        <ele>137.4</ele>
        <time>2022-05-10T06:15:37Z</time>
      </trkpt>
      <trkpt lat="43.62151" lon="3.76266">
        <ele>139.7</ele>
        <time>2022-05-10T06:15:47Z</time>
      </trkpt>
      <trkpt lat="43.62142" lon="3.76275">
        <ele>142.1</ele>
        <time>2022-05-10T06:15:57Z</time>
      </trkpt>
      <trkpt lat="43.62131" lon="3.76277">
        <ele>144.6</ele>
        <time>2022-05-10T06:16:37Z</time>
      </trkpt>
      <trkpt lat="43.62119" lon="3.76279">
        <ele>147.4</ele>
        <time>2022-05-10T06:16:57Z</time>
      </trkpt>
      <trkpt lat="43.62105" lon="3.76283">
        <ele>150.7</ele>
        <time>2022-05-10T06:17:17Z</time>
      </trkpt>
      <trkpt lat="43.62098" lon="3.76285">
        <ele>152.4</ele>
        <time>2022-05-10T06:17:27Z</time>
      </trkpt>
      <trkpt lat="43.62079" lon="3.76295">
        <ele>156.3</ele>
        <time>2022-05-10T06:17:57Z</time>
      </trkpt>
      <trkpt lat="43.62065" lon="3.7629">
        <ele>156.2</ele>
        <time>2022-05-10T06:18:17Z</time>
      </trkpt>
      <trkpt lat="43.62046" lon="3.76265">
        <ele>154.2</ele>
        <time>2022-05-10T06:18:27Z</time>
      </trkpt>
      <trkpt lat="43.62031" lon="3.76241">
        <ele>149.9</ele>
        <time>2022-05-10T06:18:37Z</time>
      </trkpt>
      <trkpt lat="43.62011" lon="3.76227">
        <ele>143.5</ele>
        <time>2022-05-10T06:18:47Z</time>
      </trkpt>
      <trkpt lat="43.61991" lon="3.76216">
        <ele>136.6</ele>
        <time>2022-05-10T06:18:57Z</time>
      </trkpt>
      <trkpt lat="43.61971" lon="3.7622">
        <ele>130.4</ele>
        <time>2022-05-10T06:19:07Z</time>
      </trkpt>
      <trkpt lat="43.61955" lon="3.76202">
        <ele>123.1</ele>
        <time>2022-05-10T06:19:17Z</time>
      </trkpt>
      <trkpt lat="43.61943" lon="3.76181">
        <ele>116.8</ele>
        <time>2022-05-10T06:19:27Z</time>
      </trkpt>
      <trkpt lat="43.61931" lon="3.76171">
        <ele>113.6</ele>
        <time>2022-05-10T06:19:37Z</time>
      </trkpt>
      <trkpt lat="43.61925" lon="3.76143">
        <ele>109.4</ele>
        <time>2022-05-10T06:19:47Z</time>
      </trkpt>
      <trkpt lat="43.61902" lon="3.76097">
        <ele>103.2</ele>
        <time>2022-05-10T06:19:57Z</time>
      </trkpt>
      <trkpt lat="43.61882" lon="3.76061">
        <ele>97.1</ele>
        <time>2022-05-10T06:20:07Z</time>
      </trkpt>
      <trkpt lat="43.61865" lon="3.7603">
        <ele>90.2</ele>
        <time>2022-05-10T06:20:17Z</time>
      </trkpt>
      <trkpt lat="43.61839" lon="3.7602">
        <ele>85.3</ele>
        <time>2022-05-10T06:20:27Z</time>
      </trkpt>
      <trkpt lat="43.61808" lon="3.76026">
        <ele>86.4</ele>
        <time>2022-05-10T06:20:47Z</time>
      </trkpt>
      <trkpt lat="43.61779" lon="3.76048">
        <ele>84.9</ele>
        <time>2022-05-10T06:20:57Z</time>
      </trkpt>
      <trkpt lat="43.6175" lon="3.76076">
        <ele>81.7</ele>
        <time>2022-05-10T06:21:07Z</time>
      </trkpt>
      <trkpt lat="43.61723" lon="3.76105">
        <ele>79.9</ele>
        <time>2022-05-10T06:21:17Z</time>
      </trkpt>
      <trkpt lat="43.61694" lon="3.76131">
        <ele>74.1</ele>
        <time>2022-05-10T06:21:27Z</time>
      </trkpt>
      <trkpt lat="43.61666" lon="3.76159">
        <ele>72.3</ele>
        <time>2022-05-10T06:21:37Z</time>
      </trkpt>
      <trkpt lat="43.61644" lon="3.76185">
        <ele>73</ele>
        <time>2022-05-10T06:21:47Z</time>
      </trkpt>
      <trkpt lat="43.6162" lon="3.76202">
        <ele>72.5</ele>
        <time>2022-05-10T06:21:57Z</time>
      </trkpt>
      <trkpt lat="43.61597" lon="3.76219">
        <ele>72.9</ele>
        <time>2022-05-10T06:22:07Z</time>
      </trkpt>
      <trkpt lat="43.61599" lon="3.76196">
        <ele>75.4</ele>
        <time>2022-05-10T06:22:17Z</time>
      </trkpt>
      <trkpt lat="43.61604" lon="3.76168">
        <ele>76.9</ele>
        <time>2022-05-10T06:22:27Z</time>
      </trkpt>
      <trkpt lat="43.61627" lon="3.76134">
        <ele>75.2</ele>
        <time>2022-05-10T06:22:37Z</time>
      </trkpt>
      <trkpt lat="43.61646" lon="3.76108">
        <ele>76.7</ele>
        <time>2022-05-10T06:22:47Z</time>
      </trkpt>
      <trkpt lat="43.61655" lon="3.76085">
        <ele>77.7</ele>
        <time>2022-05-10T06:22:57Z</time>
      </trkpt>
      <trkpt lat="43.61666" lon="3.76068">
        <ele>80.3</ele>
        <time>2022-05-10T06:23:07Z</time>
      </trkpt>
      <trkpt lat="43.61672" lon="3.7605">
        <ele>82.8</ele>
        <time>2022-05-10T06:23:17Z</time>
      </trkpt>
      <trkpt lat="43.61677" lon="3.76036">
        <ele>84.4</ele>
        <time>2022-05-10T06:23:27Z</time>
      </trkpt>
      <trkpt lat="43.61685" lon="3.76022">
        <ele>86.5</ele>
        <time>2022-05-10T06:23:37Z</time>
      </trkpt>
      <trkpt lat="43.61693" lon="3.76009">
        <ele>88.9</ele>
        <time>2022-05-10T06:23:47Z</time>
      </trkpt>
      <trkpt lat="43.617" lon="3.75995">
        <ele>90.6</ele>
        <time>2022-05-10T06:23:57Z</time>
      </trkpt>
      <trkpt lat="43.61705" lon="3.75981">
        <ele>93.7</ele>
        <time>2022-05-10T06:24:07Z</time>
      </trkpt>
      <trkpt lat="43.61715" lon="3.75968">
        <ele>95.8</ele>
        <time>2022-05-10T06:24:17Z</time>
      </trkpt>
      <trkpt lat="43.61723" lon="3.75956">
        <ele>98</ele>
        <time>2022-05-10T06:24:27Z</time>
      </trkpt>
      <trkpt lat="43.61732" lon="3.75945">
        <ele>99.3</ele>
        <time>2022-05-10T06:24:37Z</time>
      </trkpt>
      <trkpt lat="43.61744" lon="3.75934">
        <ele>99.5</ele>
        <time>2022-05-10T06:24:47Z</time>
      </trkpt>
      <trkpt lat="43.61751" lon="3.75922">
        <ele>101.2</ele>
        <time>2022-05-10T06:24:57Z</time>
      </trkpt>
      <trkpt lat="43.61757" lon="3.75908">
        <ele>102</ele>
        <time>2022-05-10T06:25:07Z</time>
      </trkpt>
      <trkpt lat="43.61761" lon="3.75892">
        <ele>103</ele>
        <time>2022-05-10T06:25:17Z</time>
      </trkpt>
      <trkpt lat="43.61764" lon="3.75877">
        <ele>103.8</ele>
        <time>2022-05-10T06:25:27Z</time>
      </trkpt>
      <trkpt lat="43.61766" lon="3.75862">
        <ele>104.9</ele>
        <time>2022-05-10T06:25:37Z</time>
      </trkpt>
      <trkpt lat="43.61767" lon="3.75846">
        <ele>107.1</ele>
        <time>2022-05-10T06:25:47Z</time>
      </trkpt>
      <trkpt lat="43.61771" lon="3.7583">
        <ele>109.3</ele>
        <time>2022-05-10T06:25:57Z</time>
      </trkpt>
      <trkpt lat="43.61773" lon="3.75815">
        <ele>111.6</ele>
        <time>2022-05-10T06:26:07Z</time>
      </trkpt>
      <trkpt lat="43.61776" lon="3.758">
        <ele>113.9</ele>
        <time>2022-05-10T06:26:17Z</time>
      </trkpt>
      <trkpt lat="43.61776" lon="3.75785">
        <ele>116.1</ele>
        <time>2022-05-10T06:26:27Z</time>
      </trkpt>
      <trkpt lat="43.6178" lon="3.75768">
        <ele>118.2</ele>
        <time>2022-05-10T06:26:37Z</time>
      </trkpt>
      <trkpt lat="43.61784" lon="3.75746">
        <ele>119.8</ele>
        <time>2022-05-10T06:26:47Z</time>
      </trkpt>
      <trkpt lat="43.61787" lon="3.75714">
        <ele>117.7</ele>
        <time>2022-05-10T06:26:57Z</time>
      </trkpt>
      <trkpt lat="43.61782" lon="3.75683">
        <ele>113.2</ele>
        <time>2022-05-10T06:27:07Z</time>
      </trkpt>
      <trkpt lat="43.61774" lon="3.75644">
        <ele>107.3</ele>
        <time>2022-05-10T06:27:17Z</time>
      </trkpt>
      <trkpt lat="43.61775" lon="3.75605">
        <ele>103.3</ele>
        <time>2022-05-10T06:27:27Z</time>
      </trkpt>
      <trkpt lat="43.61773" lon="3.75566">
        <ele>99.1</ele>
        <time>2022-05-10T06:27:37Z</time>
      </trkpt>
      <trkpt lat="43.61767" lon="3.7553">
        <ele>96.9</ele>
        <time>2022-05-10T06:27:47Z</time>
      </trkpt>
      <trkpt lat="43.61757" lon="3.75501">
        <ele>95.6</ele>
        <time>2022-05-10T06:27:57Z</time>
      </trkpt>
      <trkpt lat="43.61746" lon="3.75467">
        <ele>93.9</ele>
        <time>2022-05-10T06:28:07Z</time>
      </trkpt>
      <trkpt lat="43.61731" lon="3.75439">
        <ele>94.4</ele>
        <time>2022-05-10T06:28:17Z</time>
      </trkpt>
      <trkpt lat="43.6172" lon="3.75408">
        <ele>93.1</ele>
        <time>2022-05-10T06:28:27Z</time>
      </trkpt>
      <trkpt lat="43.61719" lon="3.75397">
        <ele>93.6</ele>
        <time>2022-05-10T06:28:37Z</time>
      </trkpt>
      <trkpt lat="43.61709" lon="3.7538">
        <ele>93.9</ele>
        <time>2022-05-10T06:28:47Z</time>
      </trkpt>
      <trkpt lat="43.617" lon="3.75343">
        <ele>94.4</ele>
        <time>2022-05-10T06:28:57Z</time>
      </trkpt>
      <trkpt lat="43.61681" lon="3.75307">
        <ele>94.1</ele>
        <time>2022-05-10T06:29:07Z</time>
      </trkpt>
      <trkpt lat="43.61664" lon="3.75268">
        <ele>95.1</ele>
        <time>2022-05-10T06:29:17Z</time>
      </trkpt>
      <trkpt lat="43.6167" lon="3.7522">
        <ele>94.3</ele>
        <time>2022-05-10T06:29:27Z</time>
      </trkpt>
      <trkpt lat="43.61687" lon="3.75195">
        <ele>94.5</ele>
        <time>2022-05-10T06:29:37Z</time>
      </trkpt>
      <trkpt lat="43.61697" lon="3.75165">
        <ele>96</ele>
        <time>2022-05-10T06:29:47Z</time>
      </trkpt>
      <trkpt lat="43.61696" lon="3.75139">
        <ele>97</ele>
        <time>2022-05-10T06:29:57Z</time>
      </trkpt>
      <trkpt lat="43.61684" lon="3.7514">
        <ele>98.4</ele>
        <time>2022-05-10T06:30:07Z</time>
      </trkpt>
      <trkpt lat="43.6167" lon="3.75149">
        <ele>99.2</ele>
        <time>2022-05-10T06:30:17Z</time>
      </trkpt>
      <trkpt lat="43.61655" lon="3.75167">
        <ele>99.5</ele>
        <time>2022-05-10T06:30:27Z</time>
      </trkpt>
      <trkpt lat="43.61649" lon="3.75163">
        <ele>101.4</ele>
        <time>2022-05-10T06:30:37Z</time>
      </trkpt>
      <trkpt lat="43.61653" lon="3.75149">
        <ele>102.8</ele>
        <time>2022-05-10T06:30:47Z</time>
      </trkpt>
      <trkpt lat="43.61654" lon="3.75129">
        <ele>105.6</ele>
        <time>2022-05-10T06:30:57Z</time>
      </trkpt>
      <trkpt lat="43.6165" lon="3.75108">
        <ele>109.2</ele>
        <time>2022-05-10T06:31:07Z</time>
      </trkpt>
      <trkpt lat="43.61646" lon="3.75096">
        <ele>110.1</ele>
        <time>2022-05-10T06:31:17Z</time>
      </trkpt>
      <trkpt lat="43.61639" lon="3.75085">
        <ele>112</ele>
        <time>2022-05-10T06:31:27Z</time>
      </trkpt>
      <trkpt lat="43.61631" lon="3.75072">
        <ele>112.2</ele>
        <time>2022-05-10T06:31:37Z</time>
      </trkpt>
      <trkpt lat="43.61622" lon="3.75063">
        <ele>112.9</ele>
        <time>2022-05-10T06:31:47Z</time>
      </trkpt>
      <trkpt lat="43.61614" lon="3.75056">
        <ele>113.5</ele>
        <time>2022-05-10T06:31:57Z</time>
      </trkpt>
      <trkpt lat="43.61599" lon="3.75056">
        <ele>116.3</ele>
        <time>2022-05-10T06:32:07Z</time>
      </trkpt>
      <trkpt lat="43.61588" lon="3.75056">
        <ele>118.3</ele>
        <time>2022-05-10T06:32:17Z</time>
      </trkpt>
      <trkpt lat="43.61575" lon="3.75058">
        <ele>120.1</ele>
        <time>2022-05-10T06:32:27Z</time>
      </trkpt>
      <trkpt lat="43.61565" lon="3.75057">
        <ele>120.6</ele>
        <time>2022-05-10T06:32:37Z</time>
      </trkpt>
      <trkpt lat="43.61562" lon="3.75043">
        <ele>120.5</ele>
        <time>2022-05-10T06:32:47Z</time>
      </trkpt>
      <trkpt lat="43.61565" lon="3.7503">
        <ele>119.7</ele>
        <time>2022-05-10T06:32:57Z</time>
      </trkpt>
      <trkpt lat="43.61569" lon="3.75014">
        <ele>120.1</ele>
        <time>2022-05-10T06:33:07Z</time>
      </trkpt>
      <trkpt lat="43.61572" lon="3.74995">
        <ele>121.7</ele>
        <time>2022-05-10T06:33:17Z</time>
      </trkpt>
      <trkpt lat="43.61575" lon="3.74977">
        <ele>124.3</ele>
        <time>2022-05-10T06:33:27Z</time>
      </trkpt>
      <trkpt lat="43.61572" lon="3.74961">
        <ele>127.5</ele>
        <time>2022-05-10T06:33:37Z</time>
      </trkpt>
      <trkpt lat="43.61561" lon="3.74961">
        <ele>128.9</ele>
        <time>2022-05-10T06:33:47Z</time>
      </trkpt>
      <trkpt lat="43.61552" lon="3.74971">
        <ele>129.2</ele>
        <time>2022-05-10T06:33:57Z</time>
      </trkpt>
      <trkpt lat="43.61537" lon="3.7498">
        <ele>132.3</ele>
        <time>2022-05-10T06:34:07Z</time>
      </trkpt>
      <trkpt lat="43.61523" lon="3.74991">
        <ele>134.4</ele>
        <time>2022-05-10T06:34:17Z</time>
      </trkpt>
      <trkpt lat="43.61514" lon="3.75002">
        <ele>135.2</ele>
        <time>2022-05-10T06:34:27Z</time>
      </trkpt>
      <trkpt lat="43.61506" lon="3.75011">
        <ele>135.9</ele>
        <time>2022-05-10T06:34:37Z</time>
      </trkpt>
      <trkpt lat="43.61489" lon="3.7503">
        <ele>137.2</ele>
        <time>2022-05-10T06:34:57Z</time>
      </trkpt>
      <trkpt lat="43.61475" lon="3.75045">
        <ele>139.1</ele>
        <time>2022-05-10T06:35:17Z</time>
      </trkpt>
      <trkpt lat="43.61462" lon="3.75059">
        <ele>140.2</ele>
        <time>2022-05-10T06:35:27Z</time>
      </trkpt>
      <trkpt lat="43.61448" lon="3.75062">
        <ele>141.6</ele>
        <time>2022-05-10T06:35:37Z</time>
      </trkpt>
      <trkpt lat="43.61446" lon="3.75045">
        <ele>142.6</ele>
        <time>2022-05-10T06:35:47Z</time>
      </trkpt>
      <trkpt lat="43.61444" lon="3.75027">
        <ele>144</ele>
        <time>2022-05-10T06:35:57Z</time>
      </trkpt>
      <trkpt lat="43.61447" lon="3.75011">
        <ele>145.5</ele>
        <time>2022-05-10T06:36:07Z</time>
      </trkpt>
      <trkpt lat="43.61446" lon="3.74995">
        <ele>147.2</ele>
        <time>2022-05-10T06:36:17Z</time>
      </trkpt>
      <trkpt lat="43.61445" lon="3.74979">
        <ele>148.5</ele>
        <time>2022-05-10T06:36:27Z</time>
      </trkpt>
      <trkpt lat="43.61447" lon="3.74959">
        <ele>149.8</ele>
        <time>2022-05-10T06:36:37Z</time>
      </trkpt>
      <trkpt lat="43.61448" lon="3.74944">
        <ele>150.9</ele>
        <time>2022-05-10T06:36:47Z</time>
      </trkpt>
      <trkpt lat="43.61454" lon="3.74926">
        <ele>152</ele>
        <time>2022-05-10T06:36:57Z</time>
      </trkpt>
      <trkpt lat="43.61453" lon="3.74905">
        <ele>153.5</ele>
        <time>2022-05-10T06:37:07Z</time>
      </trkpt>
      <trkpt lat="43.61453" lon="3.74886">
        <ele>154.7</ele>
        <time>2022-05-10T06:37:17Z</time>
      </trkpt>
      <trkpt lat="43.61449" lon="3.74862">
        <ele>154.7</ele>
        <time>2022-05-10T06:37:27Z</time>
      </trkpt>
      <trkpt lat="43.61456" lon="3.74833">
        <ele>151.1</ele>
        <time>2022-05-10T06:37:37Z</time>
      </trkpt>
      <trkpt lat="43.61448" lon="3.74802">
        <ele>147.1</ele>
        <time>2022-05-10T06:37:47Z</time>
      </trkpt>
      <trkpt lat="43.61444" lon="3.74765">
        <ele>143.6</ele>
        <time>2022-05-10T06:37:57Z</time>
      </trkpt>
      <trkpt lat="43.61453" lon="3.74742">
        <ele>140.6</ele>
        <time>2022-05-10T06:38:07Z</time>
      </trkpt>
      <trkpt lat="43.61472" lon="3.74732">
        <ele>138</ele>
        <time>2022-05-10T06:38:17Z</time>
      </trkpt>
      <trkpt lat="43.61491" lon="3.74729">
        <ele>133.4</ele>
        <time>2022-05-10T06:38:27Z</time>
      </trkpt>
      <trkpt lat="43.61511" lon="3.74721">
        <ele>128.7</ele>
        <time>2022-05-10T06:38:37Z</time>
      </trkpt>
      <trkpt lat="43.61548" lon="3.747">
        <ele>122.2</ele>
        <time>2022-05-10T06:38:47Z</time>
      </trkpt>
      <trkpt lat="43.61591" lon="3.74674">
        <ele>113.6</ele>
        <time>2022-05-10T06:38:57Z</time>
      </trkpt>
      <trkpt lat="43.61609" lon="3.74638">
        <ele>109.5</ele>
        <time>2022-05-10T06:39:07Z</time>
      </trkpt>
      <trkpt lat="43.61599" lon="3.74605">
        <ele>110</ele>
        <time>2022-05-10T06:39:17Z</time>
      </trkpt>
      <trkpt lat="43.61587" lon="3.74575">
        <ele>110.3</ele>
        <time>2022-05-10T06:39:27Z</time>
      </trkpt>
      <trkpt lat="43.61604" lon="3.74553">
        <ele>105.9</ele>
        <time>2022-05-10T06:39:37Z</time>
      </trkpt>
      <trkpt lat="43.61639" lon="3.7455">
        <ele>104.2</ele>
        <time>2022-05-10T06:39:47Z</time>
      </trkpt>
      <trkpt lat="43.61655" lon="3.74556">
        <ele>107.4</ele>
        <time>2022-05-10T06:39:57Z</time>
      </trkpt>
      <trkpt lat="43.61673" lon="3.74567">
        <ele>109.9</ele>
        <time>2022-05-10T06:44:37Z</time>
      </trkpt>
      <trkpt lat="43.61683" lon="3.74584">
        <ele>109.6</ele>
        <time>2022-05-10T06:44:57Z</time>
      </trkpt>
      <trkpt lat="43.61696" lon="3.74596">
        <ele>111.1</ele>
        <time>2022-05-10T06:45:07Z</time>
      </trkpt>
      <trkpt lat="43.61712" lon="3.74606">
        <ele>112.8</ele>
        <time>2022-05-10T06:45:17Z</time>
      </trkpt>
      <trkpt lat="43.61728" lon="3.74624">
        <ele>112.5</ele>
        <time>2022-05-10T06:45:27Z</time>
      </trkpt>
      <trkpt lat="43.61746" lon="3.74636">
        <ele>112.9</ele>
        <time>2022-05-10T06:45:37Z</time>
      </trkpt>
      <trkpt lat="43.61769" lon="3.74635">
        <ele>113.7</ele>
        <time>2022-05-10T06:45:47Z</time>
      </trkpt>
      <trkpt lat="43.61787" lon="3.74628">
        <ele>114.5</ele>
        <time>2022-05-10T06:45:57Z</time>
      </trkpt>
      <trkpt lat="43.6181" lon="3.74617">
        <ele>115</ele>
        <time>2022-05-10T06:46:07Z</time>
      </trkpt>
      <trkpt lat="43.61826" lon="3.74601">
        <ele>115.8</ele>
        <time>2022-05-10T06:46:17Z</time>
      </trkpt>
      <trkpt lat="43.61822" lon="3.7461">
        <ele>115.5</ele>
        <time>2022-05-10T06:46:27Z</time>
      </trkpt>
      <trkpt lat="43.61817" lon="3.74606">
        <ele>116</ele>
        <time>2022-05-10T06:46:37Z</time>
      </trkpt>
      <trkpt lat="43.61811" lon="3.74602">
        <ele>116.7</ele>
        <time>2022-05-10T06:46:47Z</time>
      </trkpt>
      <trkpt lat="43.61806" lon="3.74596">
        <ele>117.6</ele>
        <time>2022-05-10T06:46:57Z</time>
      </trkpt>
      <trkpt lat="43.61796" lon="3.74571">
        <ele>121.9</ele>
        <time>2022-05-10T06:47:07Z</time>
      </trkpt>
      <trkpt lat="43.6179" lon="3.74557">
        <ele>124.6</ele>
        <time>2022-05-10T06:47:27Z</time>
      </trkpt>
      <trkpt lat="43.61786" lon="3.74547">
        <ele>126.7</ele>
        <time>2022-05-10T06:47:37Z</time>
      </trkpt>
      <trkpt lat="43.6177" lon="3.74536">
        <ele>130.6</ele>
        <time>2022-05-10T06:47:47Z</time>
      </trkpt>
      <trkpt lat="43.61757" lon="3.74531">
        <ele>132.7</ele>
        <time>2022-05-10T06:48:07Z</time>
      </trkpt>
      <trkpt lat="43.61744" lon="3.74531">
        <ele>133</ele>
        <time>2022-05-10T06:48:17Z</time>
      </trkpt>
      <trkpt lat="43.61739" lon="3.74516">
        <ele>134.9</ele>
        <time>2022-05-10T06:48:27Z</time>
      </trkpt>
      <trkpt lat="43.61738" lon="3.74499">
        <ele>137.2</ele>
        <time>2022-05-10T06:48:37Z</time>
      </trkpt>
      <trkpt lat="43.61737" lon="3.74483">
        <ele>138.6</ele>
        <time>2022-05-10T06:48:47Z</time>
      </trkpt>
      <trkpt lat="43.61736" lon="3.74465">
        <ele>139.9</ele>
        <time>2022-05-10T06:48:57Z</time>
      </trkpt>
      <trkpt lat="43.61737" lon="3.74449">
        <ele>140.8</ele>
        <time>2022-05-10T06:49:07Z</time>
      </trkpt>
      <trkpt lat="43.61738" lon="3.74429">
        <ele>141.7</ele>
        <time>2022-05-10T06:49:17Z</time>
      </trkpt>
      <trkpt lat="43.61739" lon="3.74408">
        <ele>142.5</ele>
        <time>2022-05-10T06:49:27Z</time>
      </trkpt>
      <trkpt lat="43.61741" lon="3.74388">
        <ele>143.4</ele>
        <time>2022-05-10T06:49:37Z</time>
      </trkpt>
      <trkpt lat="43.61742" lon="3.74368">
        <ele>144.9</ele>
        <time>2022-05-10T06:49:47Z</time>
      </trkpt>
      <trkpt lat="43.61747" lon="3.74346">
        <ele>146.9</ele>
        <time>2022-05-10T06:49:57Z</time>
      </trkpt>
      <trkpt lat="43.6175" lon="3.74323">
        <ele>148.4</ele>
        <time>2022-05-10T06:50:07Z</time>
      </trkpt>
      <trkpt lat="43.61769" lon="3.74305">
        <ele>149</ele>
        <time>2022-05-10T06:50:17Z</time>
      </trkpt>
      <trkpt lat="43.61783" lon="3.74285">
        <ele>150.3</ele>
        <time>2022-05-10T06:50:27Z</time>
      </trkpt>
      <trkpt lat="43.61797" lon="3.74265">
        <ele>151.6</ele>
        <time>2022-05-10T06:50:37Z</time>
      </trkpt>
      <trkpt lat="43.61811" lon="3.74237">
        <ele>151.8</ele>
        <time>2022-05-10T06:50:47Z</time>
      </trkpt>
      <trkpt lat="43.6183" lon="3.74199">
        <ele>151.7</ele>
        <time>2022-05-10T06:50:57Z</time>
      </trkpt>
      <trkpt lat="43.6185" lon="3.7416">
        <ele>150.3</ele>
        <time>2022-05-10T06:51:07Z</time>
      </trkpt>
      <trkpt lat="43.61874" lon="3.74147">
        <ele>149.6</ele>
        <time>2022-05-10T06:51:17Z</time>
      </trkpt>
      <trkpt lat="43.61884" lon="3.74118">
        <ele>149</ele>
        <time>2022-05-10T06:51:27Z</time>
      </trkpt>
      <trkpt lat="43.61874" lon="3.74096">
        <ele>149.8</ele>
        <time>2022-05-10T06:51:37Z</time>
      </trkpt>
      <trkpt lat="43.61848" lon="3.7408">
        <ele>149.8</ele>
        <time>2022-05-10T06:51:47Z</time>
      </trkpt>
      <trkpt lat="43.61819" lon="3.74038">
        <ele>150.1</ele>
        <time>2022-05-10T06:51:57Z</time>
      </trkpt>
      <trkpt lat="43.61786" lon="3.73994">
        <ele>149.6</ele>
        <time>2022-05-10T06:52:07Z</time>
      </trkpt>
      <trkpt lat="43.61753" lon="3.73951">
        <ele>148.4</ele>
        <time>2022-05-10T06:52:17Z</time>
      </trkpt>
      <trkpt lat="43.6176" lon="3.73895">
        <ele>149.4</ele>
        <time>2022-05-10T06:52:27Z</time>
      </trkpt>
      <trkpt lat="43.61752" lon="3.73831">
        <ele>147.8</ele>
        <time>2022-05-10T06:52:37Z</time>
      </trkpt>
      <trkpt lat="43.61727" lon="3.73775">
        <ele>147.8</ele>
        <time>2022-05-10T06:52:47Z</time>
      </trkpt>
      <trkpt lat="43.61736" lon="3.73709">
        <ele>147</ele>
        <time>2022-05-10T06:52:57Z</time>
      </trkpt>
      <trkpt lat="43.61718" lon="3.73656">
        <ele>142.3</ele>
        <time>2022-05-10T06:53:07Z</time>
      </trkpt>
      <trkpt lat="43.61675" lon="3.73646">
        <ele>139</ele>
        <time>2022-05-10T06:53:17Z</time>
      </trkpt>
      <trkpt lat="43.61638" lon="3.73629">
        <ele>141.8</ele>
        <time>2022-05-10T06:53:27Z</time>
      </trkpt>
      <trkpt lat="43.61612" lon="3.73614">
        <ele>144.3</ele>
        <time>2022-05-10T06:53:37Z</time>
      </trkpt>
      <trkpt lat="43.61594" lon="3.7362">
        <ele>140.7</ele>
        <time>2022-05-10T06:53:47Z</time>
      </trkpt>
      <trkpt lat="43.61577" lon="3.73633">
        <ele>135.8</ele>
        <time>2022-05-10T06:53:57Z</time>
      </trkpt>
      <trkpt lat="43.61565" lon="3.73662">
        <ele>128.8</ele>
        <time>2022-05-10T06:54:07Z</time>
      </trkpt>
      <trkpt lat="43.61565" lon="3.737">
        <ele>123.1</ele>
        <time>2022-05-10T06:54:17Z</time>
      </trkpt>
      <trkpt lat="43.61551" lon="3.73771">
        <ele>121.3</ele>
        <time>2022-05-10T06:54:27Z</time>
      </trkpt>
      <trkpt lat="43.61523" lon="3.73833">
        <ele>115.2</ele>
        <time>2022-05-10T06:54:37Z</time>
      </trkpt>
      <trkpt lat="43.61491" lon="3.73814">
        <ele>116.8</ele>
        <time>2022-05-10T06:54:47Z</time>
      </trkpt>
      <trkpt lat="43.61478" lon="3.738">
        <ele>118.7</ele>
        <time>2022-05-10T06:54:57Z</time>
      </trkpt>
      <trkpt lat="43.61471" lon="3.73776">
        <ele>121</ele>
        <time>2022-05-10T06:55:07Z</time>
      </trkpt>
      <trkpt lat="43.6147" lon="3.73751">
        <ele>121.2</ele>
        <time>2022-05-10T06:55:17Z</time>
      </trkpt>
      <trkpt lat="43.61467" lon="3.73724">
        <ele>122.5</ele>
        <time>2022-05-10T06:55:27Z</time>
      </trkpt>
      <trkpt lat="43.61461" lon="3.73691">
        <ele>123.5</ele>
        <time>2022-05-10T06:55:37Z</time>
      </trkpt>
      <trkpt lat="43.6145" lon="3.73673">
        <ele>125</ele>
        <time>2022-05-10T06:55:47Z</time>
      </trkpt>
      <trkpt lat="43.61439" lon="3.73664">
        <ele>127</ele>
        <time>2022-05-10T06:55:57Z</time>
      </trkpt>
      <trkpt lat="43.61428" lon="3.7367">
        <ele>128.7</ele>
        <time>2022-05-10T06:56:07Z</time>
      </trkpt>
      <trkpt lat="43.61417" lon="3.73679">
        <ele>129.6</ele>
        <time>2022-05-10T06:56:17Z</time>
      </trkpt>
      <trkpt lat="43.61405" lon="3.73686">
        <ele>131.3</ele>
        <time>2022-05-10T06:56:27Z</time>
      </trkpt>
      <trkpt lat="43.61394" lon="3.73688">
        <ele>133.4</ele>
        <time>2022-05-10T06:56:37Z</time>
      </trkpt>
      <trkpt lat="43.61383" lon="3.73695">
        <ele>134.8</ele>
        <time>2022-05-10T06:56:47Z</time>
      </trkpt>
      <trkpt lat="43.61371" lon="3.73702">
        <ele>135.5</ele>
        <time>2022-05-10T06:56:57Z</time>
      </trkpt>
      <trkpt lat="43.61356" lon="3.73705">
        <ele>136.9</ele>
        <time>2022-05-10T06:57:07Z</time>
      </trkpt>
      <trkpt lat="43.61341" lon="3.73706">
        <ele>137.9</ele>
        <time>2022-05-10T06:57:17Z</time>
      </trkpt>
      <trkpt lat="43.61327" lon="3.73708">
        <ele>138.8</ele>
        <time>2022-05-10T06:57:27Z</time>
      </trkpt>
      <trkpt lat="43.61313" lon="3.7371">
        <ele>139.8</ele>
        <time>2022-05-10T06:57:37Z</time>
      </trkpt>
      <trkpt lat="43.61297" lon="3.73716">
        <ele>140.7</ele>
        <time>2022-05-10T06:57:47Z</time>
      </trkpt>
      <trkpt lat="43.61281" lon="3.73723">
        <ele>142.3</ele>
        <time>2022-05-10T06:57:57Z</time>
      </trkpt>
      <trkpt lat="43.61267" lon="3.73719">
        <ele>143.8</ele>
        <time>2022-05-10T06:58:07Z</time>
      </trkpt>
      <trkpt lat="43.61252" lon="3.73712">
        <ele>145.7</ele>
        <time>2022-05-10T06:58:17Z</time>
      </trkpt>
      <trkpt lat="43.61238" lon="3.73706">
        <ele>147.4</ele>
        <time>2022-05-10T06:58:27Z</time>
      </trkpt>
      <trkpt lat="43.61223" lon="3.73702">
        <ele>148.6</ele>
        <time>2022-05-10T06:58:37Z</time>
      </trkpt>
      <trkpt lat="43.61208" lon="3.73694">
        <ele>151</ele>
        <time>2022-05-10T06:58:47Z</time>
      </trkpt>
      <trkpt lat="43.61193" lon="3.73689">
        <ele>152.3</ele>
        <time>2022-05-10T06:58:57Z</time>
      </trkpt>
      <trkpt lat="43.61179" lon="3.73682">
        <ele>153.6</ele>
        <time>2022-05-10T06:59:07Z</time>
      </trkpt>
      <trkpt lat="43.61169" lon="3.73663">
        <ele>154.7</ele>
        <time>2022-05-10T06:59:17Z</time>
      </trkpt>
      <trkpt lat="43.61155" lon="3.73646">
        <ele>155.1</ele>
        <time>2022-05-10T06:59:27Z</time>
      </trkpt>
      <trkpt lat="43.61134" lon="3.73628">
        <ele>155.7</ele>
        <time>2022-05-10T06:59:37Z</time>
      </trkpt>
      <trkpt lat="43.61118" lon="3.73601">
        <ele>155.5</ele>
        <time>2022-05-10T06:59:47Z</time>
      </trkpt>
      <trkpt lat="43.61136" lon="3.73564">
        <ele>154.4</ele>
        <time>2022-05-10T06:59:57Z</time>
      </trkpt>
      <trkpt lat="43.61144" lon="3.73504">
        <ele>152.5</ele>
        <time>2022-05-10T07:00:07Z</time>
      </trkpt>
      <trkpt lat="43.61137" lon="3.73469">
        <ele>154.5</ele>
        <time>2022-05-10T07:00:17Z</time>
      </trkpt>
      <trkpt lat="43.61141" lon="3.73444">
        <ele>155.5</ele>
        <time>2022-05-10T07:00:27Z</time>
      </trkpt>
      <trkpt lat="43.61131" lon="3.73424">
        <ele>160.8</ele>
        <time>2022-05-10T07:01:17Z</time>
      </trkpt>
      <trkpt lat="43.61121" lon="3.73425">
        <ele>163.1</ele>
        <time>2022-05-10T07:01:37Z</time>
      </trkpt>
      <trkpt lat="43.61112" lon="3.73429">
        <ele>164.9</ele>
        <time>2022-05-10T07:01:47Z</time>
      </trkpt>
      <trkpt lat="43.611" lon="3.73435">
        <ele>166.2</ele>
        <time>2022-05-10T07:01:57Z</time>
      </trkpt>
      <trkpt lat="43.6109" lon="3.73434">
        <ele>167.6</ele>
        <time>2022-05-10T07:02:07Z</time>
      </trkpt>
      <trkpt lat="43.61081" lon="3.73428">
        <ele>169.5</ele>
        <time>2022-05-10T07:02:17Z</time>
      </trkpt>
      <trkpt lat="43.61073" lon="3.73417">
        <ele>171.3</ele>
        <time>2022-05-10T07:02:27Z</time>
      </trkpt>
      <trkpt lat="43.61067" lon="3.73403">
        <ele>173.4</ele>
        <time>2022-05-10T07:02:37Z</time>
      </trkpt>
      <trkpt lat="43.61056" lon="3.73396">
        <ele>174.9</ele>
        <time>2022-05-10T07:02:47Z</time>
      </trkpt>
      <trkpt lat="43.61048" lon="3.73388">
        <ele>176.4</ele>
        <time>2022-05-10T07:02:57Z</time>
      </trkpt>
      <trkpt lat="43.61042" lon="3.73379">
        <ele>177.9</ele>
        <time>2022-05-10T07:03:07Z</time>
      </trkpt>
      <trkpt lat="43.6103" lon="3.73367">
        <ele>180.1</ele>
        <time>2022-05-10T07:03:17Z</time>
      </trkpt>
      <trkpt lat="43.61022" lon="3.73353">
        <ele>181.5</ele>
        <time>2022-05-10T07:03:27Z</time>
      </trkpt>
      <trkpt lat="43.61014" lon="3.73335">
        <ele>182.8</ele>
        <time>2022-05-10T07:03:37Z</time>
      </trkpt>
      <trkpt lat="43.61011" lon="3.73315">
        <ele>183.9</ele>
        <time>2022-05-10T07:03:47Z</time>
      </trkpt>
      <trkpt lat="43.61004" lon="3.7329">
        <ele>184.1</ele>
        <time>2022-05-10T07:03:57Z</time>
      </trkpt>
      <trkpt lat="43.61007" lon="3.73253">
        <ele>185.1</ele>
        <time>2022-05-10T07:04:07Z</time>
      </trkpt>
      <trkpt lat="43.61002" lon="3.73209">
        <ele>185.1</ele>
        <time>2022-05-10T07:04:17Z</time>
      </trkpt>
      <trkpt lat="43.6099" lon="3.73168">
        <ele>182.7</ele>
        <time>2022-05-10T07:04:27Z</time>
      </trkpt>
      <trkpt lat="43.60981" lon="3.73137">
        <ele>184.8</ele>
        <time>2022-05-10T07:04:37Z</time>
      </trkpt>
      <trkpt lat="43.60966" lon="3.73106">
        <ele>186.1</ele>
        <time>2022-05-10T07:04:47Z</time>
      </trkpt>
      <trkpt lat="43.60951" lon="3.73074">
        <ele>187.9</ele>
        <time>2022-05-10T07:04:57Z</time>
      </trkpt>
      <trkpt lat="43.60943" lon="3.73039">
        <ele>188.6</ele>
        <time>2022-05-10T07:05:07Z</time>
      </trkpt>
      <trkpt lat="43.60944" lon="3.73003">
        <ele>188.9</ele>
        <time>2022-05-10T07:05:17Z</time>
      </trkpt>
      <trkpt lat="43.60948" lon="3.7297">
        <ele>187.1</ele>
        <time>2022-05-10T07:05:27Z</time>
      </trkpt>
      <trkpt lat="43.60929" lon="3.72948">
        <ele>180.2</ele>
        <time>2022-05-10T07:05:37Z</time>
      </trkpt>
      <trkpt lat="43.60911" lon="3.72911">
        <ele>171.4</ele>
        <time>2022-05-10T07:05:47Z</time>
      </trkpt>
      <trkpt lat="43.60893" lon="3.72883">
        <ele>165.4</ele>
        <time>2022-05-10T07:05:57Z</time>
      </trkpt>
      <trkpt lat="43.60888" lon="3.72842">
        <ele>159.6</ele>
        <time>2022-05-10T07:06:07Z</time>
      </trkpt>
      <trkpt lat="43.60885" lon="3.72825">
        <ele>157.6</ele>
        <time>2022-05-10T07:06:17Z</time>
      </trkpt>
      <trkpt lat="43.60868" lon="3.72789">
        <ele>154.6</ele>
        <time>2022-05-10T07:06:27Z</time>
      </trkpt>
      <trkpt lat="43.60837" lon="3.72782">
        <ele>154.9</ele>
        <time>2022-05-10T07:06:37Z</time>
      </trkpt>
      <trkpt lat="43.60829" lon="3.72748">
        <ele>154.5</ele>
        <time>2022-05-10T07:06:47Z</time>
      </trkpt>
      <trkpt lat="43.6082" lon="3.7271">
        <ele>155.9</ele>
        <time>2022-05-10T07:06:57Z</time>
      </trkpt>
      <trkpt lat="43.60815" lon="3.72672">
        <ele>157.5</ele>
        <time>2022-05-10T07:07:07Z</time>
      </trkpt>
      <trkpt lat="43.60809" lon="3.72634">
        <ele>158.6</ele>
        <time>2022-05-10T07:07:17Z</time>
      </trkpt>
      <trkpt lat="43.60803" lon="3.72602">
        <ele>159.5</ele>
        <time>2022-05-10T07:07:27Z</time>
      </trkpt>
      <trkpt lat="43.60796" lon="3.72574">
        <ele>160.9</ele>
        <time>2022-05-10T07:07:37Z</time>
      </trkpt>
      <trkpt lat="43.60785" lon="3.72545">
        <ele>162.7</ele>
        <time>2022-05-10T07:07:47Z</time>
      </trkpt>
      <trkpt lat="43.60776" lon="3.72514">
        <ele>163.3</ele>
        <time>2022-05-10T07:07:57Z</time>
      </trkpt>
      <trkpt lat="43.60767" lon="3.72485">
        <ele>164.6</ele>
        <time>2022-05-10T07:08:07Z</time>
      </trkpt>
      <trkpt lat="43.6076" lon="3.72458">
        <ele>165.7</ele>
        <time>2022-05-10T07:08:17Z</time>
      </trkpt>
      <trkpt lat="43.60751" lon="3.7243">
        <ele>166.9</ele>
        <time>2022-05-10T07:08:27Z</time>
      </trkpt>
      <trkpt lat="43.60745" lon="3.72405">
        <ele>168.1</ele>
        <time>2022-05-10T07:08:37Z</time>
      </trkpt>
      <trkpt lat="43.60735" lon="3.72388">
        <ele>170.2</ele>
        <time>2022-05-10T07:08:47Z</time>
      </trkpt>
      <trkpt lat="43.60729" lon="3.72368">
        <ele>172</ele>
        <time>2022-05-10T07:08:57Z</time>
      </trkpt>
      <trkpt lat="43.60719" lon="3.72353">
        <ele>173.7</ele>
        <time>2022-05-10T07:09:07Z</time>
      </trkpt>
      <trkpt lat="43.60706" lon="3.72332">
        <ele>175.8</ele>
        <time>2022-05-10T07:09:17Z</time>
      </trkpt>
      <trkpt lat="43.60696" lon="3.72311">
        <ele>176.9</ele>
        <time>2022-05-10T07:09:27Z</time>
      </trkpt>
      <trkpt lat="43.60688" lon="3.72283">
        <ele>176</ele>
        <time>2022-05-10T07:09:57Z</time>
      </trkpt>
      <trkpt lat="43.60688" lon="3.72254">
        <ele>173.1</ele>
        <time>2022-05-10T07:10:17Z</time>
      </trkpt>
      <trkpt lat="43.60681" lon="3.72206">
        <ele>169.9</ele>
        <time>2022-05-10T07:10:27Z</time>
      </trkpt>
      <trkpt lat="43.60657" lon="3.72141">
        <ele>166.8</ele>
        <time>2022-05-10T07:10:37Z</time>
      </trkpt>
      <trkpt lat="43.60619" lon="3.72105">
        <ele>165.4</ele>
        <time>2022-05-10T07:10:47Z</time>
      </trkpt>
      <trkpt lat="43.60597" lon="3.7207">
        <ele>167.1</ele>
        <time>2022-05-10T07:10:57Z</time>
      </trkpt>
      <trkpt lat="43.6057" lon="3.72028">
        <ele>166.6</ele>
        <time>2022-05-10T07:11:07Z</time>
      </trkpt>
      <trkpt lat="43.60548" lon="3.72028">
        <ele>163</ele>
        <time>2022-05-10T07:11:17Z</time>
      </trkpt>
      <trkpt lat="43.60544" lon="3.72063">
        <ele>161.8</ele>
        <time>2022-05-10T07:11:27Z</time>
      </trkpt>
      <trkpt lat="43.60563" lon="3.7213">
        <ele>159.3</ele>
        <time>2022-05-10T07:11:37Z</time>
      </trkpt>
      <trkpt lat="43.60544" lon="3.72199">
        <ele>156.9</ele>
        <time>2022-05-10T07:11:47Z</time>
      </trkpt>
      <trkpt lat="43.60515" lon="3.72278">
        <ele>153.9</ele>
        <time>2022-05-10T07:11:57Z</time>
      </trkpt>
      <trkpt lat="43.60487" lon="3.7234">
        <ele>152.5</ele>
        <time>2022-05-10T07:12:07Z</time>
      </trkpt>
      <trkpt lat="43.60463" lon="3.724">
        <ele>150.4</ele>
        <time>2022-05-10T07:12:17Z</time>
      </trkpt>
      <trkpt lat="43.60424" lon="3.72449">
        <ele>149.3</ele>
        <time>2022-05-10T07:12:27Z</time>
      </trkpt>
      <trkpt lat="43.60379" lon="3.72481">
        <ele>147.6</ele>
        <time>2022-05-10T07:12:37Z</time>
      </trkpt>
      <trkpt lat="43.60327" lon="3.72523">
        <ele>145.9</ele>
        <time>2022-05-10T07:12:47Z</time>
      </trkpt>
      <trkpt lat="43.60274" lon="3.72554">
        <ele>143.7</ele>
        <time>2022-05-10T07:12:57Z</time>
      </trkpt>
      <trkpt lat="43.60223" lon="3.726">
        <ele>142.2</ele>
        <time>2022-05-10T07:13:07Z</time>
      </trkpt>
      <trkpt lat="43.60174" lon="3.72649">
        <ele>140.8</ele>
        <time>2022-05-10T07:13:17Z</time>
      </trkpt>
      <trkpt lat="43.60135" lon="3.72706">
        <ele>139.9</ele>
        <time>2022-05-10T07:13:27Z</time>
      </trkpt>
      <trkpt lat="43.60091" lon="3.72749">
        <ele>138</ele>
        <time>2022-05-10T07:13:37Z</time>
      </trkpt>
      <trkpt lat="43.60052" lon="3.72751">
        <ele>135.7</ele>
        <time>2022-05-10T07:13:47Z</time>
      </trkpt>
      <trkpt lat="43.60019" lon="3.72711">
        <ele>135.1</ele>
        <time>2022-05-10T07:13:57Z</time>
      </trkpt>
      <trkpt lat="43.59992" lon="3.72718">
        <ele>135.2</ele>
        <time>2022-05-10T07:14:07Z</time>
      </trkpt>
      <trkpt lat="43.59961" lon="3.72702">
        <ele>136.9</ele>
        <time>2022-05-10T07:14:17Z</time>
      </trkpt>
      <trkpt lat="43.59943" lon="3.72674">
        <ele>138.6</ele>
        <time>2022-05-10T07:14:27Z</time>
      </trkpt>
      <trkpt lat="43.59909" lon="3.72639">
        <ele>137.7</ele>
        <time>2022-05-10T07:14:37Z</time>
      </trkpt>
      <trkpt lat="43.59874" lon="3.72602">
        <ele>137.8</ele>
        <time>2022-05-10T07:14:47Z</time>
      </trkpt>
      <trkpt lat="43.5984" lon="3.72597">
        <ele>137.5</ele>
        <time>2022-05-10T07:14:57Z</time>
      </trkpt>
      <trkpt lat="43.59796" lon="3.72609">
        <ele>138.4</ele>
        <time>2022-05-10T07:15:07Z</time>
      </trkpt>
      <trkpt lat="43.59755" lon="3.72623">
        <ele>139</ele>
        <time>2022-05-10T07:15:17Z</time>
      </trkpt>
      <trkpt lat="43.59718" lon="3.72647">
        <ele>140.2</ele>
        <time>2022-05-10T07:15:27Z</time>
      </trkpt>
      <trkpt lat="43.59684" lon="3.7267">
        <ele>141.8</ele>
        <time>2022-05-10T07:15:37Z</time>
      </trkpt>
      <trkpt lat="43.59654" lon="3.72671">
        <ele>143.3</ele>
        <time>2022-05-10T07:15:47Z</time>
      </trkpt>
      <trkpt lat="43.59626" lon="3.7267">
        <ele>144.3</ele>
        <time>2022-05-10T07:15:57Z</time>
      </trkpt>
      <trkpt lat="43.59612" lon="3.72657">
        <ele>145.3</ele>
        <time>2022-05-10T07:16:07Z</time>
      </trkpt>
      <trkpt lat="43.59623" lon="3.72618">
        <ele>145.7</ele>
        <time>2022-05-10T07:16:17Z</time>
      </trkpt>
      <trkpt lat="43.59629" lon="3.72576">
        <ele>145.1</ele>
        <time>2022-05-10T07:16:27Z</time>
      </trkpt>
      <trkpt lat="43.59651" lon="3.72567">
        <ele>143.6</ele>
        <time>2022-05-10T07:16:37Z</time>
      </trkpt>
      <trkpt lat="43.59668" lon="3.72533">
        <ele>143</ele>
        <time>2022-05-10T07:16:47Z</time>
      </trkpt>
      <trkpt lat="43.59679" lon="3.72491">
        <ele>144.6</ele>
        <time>2022-05-10T07:16:57Z</time>
      </trkpt>
      <trkpt lat="43.59686" lon="3.72462">
        <ele>146.4</ele>
        <time>2022-05-10T07:17:07Z</time>
      </trkpt>
      <trkpt lat="43.59698" lon="3.72433">
        <ele>147.3</ele>
        <time>2022-05-10T07:17:17Z</time>
      </trkpt>
      <trkpt lat="43.597" lon="3.72398">
        <ele>149.1</ele>
        <time>2022-05-10T07:17:27Z</time>
      </trkpt>
      <trkpt lat="43.59716" lon="3.72375">
        <ele>149.7</ele>
        <time>2022-05-10T07:17:37Z</time>
      </trkpt>
      <trkpt lat="43.59732" lon="3.72367">
        <ele>150.8</ele>
        <time>2022-05-10T07:17:47Z</time>
      </trkpt>
      <trkpt lat="43.59733" lon="3.72339">
        <ele>152.6</ele>
        <time>2022-05-10T07:17:57Z</time>
      </trkpt>
      <trkpt lat="43.59729" lon="3.72303">
        <ele>153.6</ele>
        <time>2022-05-10T07:18:07Z</time>
      </trkpt>
      <trkpt lat="43.59724" lon="3.72267">
        <ele>154.7</ele>
        <time>2022-05-10T07:18:17Z</time>
      </trkpt>
      <trkpt lat="43.59724" lon="3.72228">
        <ele>155.3</ele>
        <time>2022-05-10T07:18:27Z</time>
      </trkpt>
      <trkpt lat="43.59723" lon="3.72187">
        <ele>156.3</ele>
        <time>2022-05-10T07:18:37Z</time>
      </trkpt>
      <trkpt lat="43.59718" lon="3.72156">
        <ele>157.8</ele>
        <time>2022-05-10T07:18:47Z</time>
      </trkpt>
      <trkpt lat="43.59716" lon="3.72131">
        <ele>159.9</ele>
        <time>2022-05-10T07:18:57Z</time>
      </trkpt>
      <trkpt lat="43.5972" lon="3.72109">
        <ele>162.1</ele>
        <time>2022-05-10T07:19:07Z</time>
      </trkpt>
      <trkpt lat="43.59724" lon="3.72089">
        <ele>163.4</ele>
        <time>2022-05-10T07:19:17Z</time>
      </trkpt>
      <trkpt lat="43.59722" lon="3.72067">
        <ele>165.2</ele>
        <time>2022-05-10T07:19:27Z</time>
      </trkpt>
      <trkpt lat="43.59718" lon="3.72046">
        <ele>166.4</ele>
        <time>2022-05-10T07:19:37Z</time>
      </trkpt>
      <trkpt lat="43.59717" lon="3.72026">
        <ele>167.8</ele>
        <time>2022-05-10T07:19:47Z</time>
      </trkpt>
      <trkpt lat="43.59719" lon="3.72006">
        <ele>169.3</ele>
        <time>2022-05-10T07:19:57Z</time>
      </trkpt>
      <trkpt lat="43.59722" lon="3.71988">
        <ele>170.8</ele>
        <time>2022-05-10T07:20:07Z</time>
      </trkpt>
      <trkpt lat="43.59725" lon="3.71969">
        <ele>172.1</ele>
        <time>2022-05-10T07:20:17Z</time>
      </trkpt>
      <trkpt lat="43.59727" lon="3.71952">
        <ele>173.8</ele>
        <time>2022-05-10T07:20:27Z</time>
      </trkpt>
      <trkpt lat="43.59728" lon="3.71933">
        <ele>175.7</ele>
        <time>2022-05-10T07:20:37Z</time>
      </trkpt>
      <trkpt lat="43.59728" lon="3.71915">
        <ele>177.5</ele>
        <time>2022-05-10T07:20:47Z</time>
      </trkpt>
      <trkpt lat="43.59731" lon="3.71897">
        <ele>178.7</ele>
        <time>2022-05-10T07:20:57Z</time>
      </trkpt>
      <trkpt lat="43.59736" lon="3.71878">
        <ele>180</ele>
        <time>2022-05-10T07:21:07Z</time>
      </trkpt>
      <trkpt lat="43.59742" lon="3.71859">
        <ele>181.4</ele>
        <time>2022-05-10T07:21:17Z</time>
      </trkpt>
      <trkpt lat="43.59752" lon="3.71837">
        <ele>182.4</ele>
        <time>2022-05-10T07:21:27Z</time>
      </trkpt>
      <trkpt lat="43.59762" lon="3.71814">
        <ele>183.3</ele>
        <time>2022-05-10T07:21:37Z</time>
      </trkpt>
      <trkpt lat="43.59772" lon="3.71792">
        <ele>185.2</ele>
        <time>2022-05-10T07:21:47Z</time>
      </trkpt>
      <trkpt lat="43.59779" lon="3.7177">
        <ele>187.7</ele>
        <time>2022-05-10T07:21:57Z</time>
      </trkpt>
      <trkpt lat="43.59784" lon="3.71752">
        <ele>189.5</ele>
        <time>2022-05-10T07:22:07Z</time>
      </trkpt>
      <trkpt lat="43.5979" lon="3.71735">
        <ele>190.8</ele>
        <time>2022-05-10T07:22:17Z</time>
      </trkpt>
      <trkpt lat="43.59796" lon="3.71717">
        <ele>192.4</ele>
        <time>2022-05-10T07:22:27Z</time>
      </trkpt>
      <trkpt lat="43.59803" lon="3.71697">
        <ele>193.6</ele>
        <time>2022-05-10T07:22:37Z</time>
      </trkpt>
      <trkpt lat="43.59827" lon="3.71684">
        <ele>191.4</ele>
        <time>2022-05-10T07:22:47Z</time>
      </trkpt>
      <trkpt lat="43.59864" lon="3.71651">
        <ele>187</ele>
        <time>2022-05-10T07:22:57Z</time>
      </trkpt>
      <trkpt lat="43.5988" lon="3.71595">
        <ele>181.1</ele>
        <time>2022-05-10T07:23:07Z</time>
      </trkpt>
      <trkpt lat="43.59904" lon="3.71573">
        <ele>178.5</ele>
        <time>2022-05-10T07:23:17Z</time>
      </trkpt>
      <trkpt lat="43.59924" lon="3.71547">
        <ele>176.4</ele>
        <time>2022-05-10T07:23:27Z</time>
      </trkpt>
      <trkpt lat="43.59925" lon="3.71517">
        <ele>174.4</ele>
        <time>2022-05-10T07:23:37Z</time>
      </trkpt>
      <trkpt lat="43.59918" lon="3.71491">
        <ele>169</ele>
        <time>2022-05-10T07:23:47Z</time>
      </trkpt>
      <trkpt lat="43.5991" lon="3.71463">
        <ele>163.9</ele>
        <time>2022-05-10T07:23:57Z</time>
      </trkpt>
      <trkpt lat="43.59901" lon="3.71434">
        <ele>157.9</ele>
        <time>2022-05-10T07:24:07Z</time>
      </trkpt>
      <trkpt lat="43.59892" lon="3.71397">
        <ele>151.7</ele>
        <time>2022-05-10T07:24:17Z</time>
      </trkpt>
      <trkpt lat="43.59883" lon="3.71346">
        <ele>146.6</ele>
        <time>2022-05-10T07:24:27Z</time>
      </trkpt>
      <trkpt lat="43.59879" lon="3.713">
        <ele>143.5</ele>
        <time>2022-05-10T07:24:37Z</time>
      </trkpt>
      <trkpt lat="43.59878" lon="3.71261">
        <ele>140.7</ele>
        <time>2022-05-10T07:24:47Z</time>
      </trkpt>
      <trkpt lat="43.59888" lon="3.71219">
        <ele>139.5</ele>
        <time>2022-05-10T07:24:57Z</time>
      </trkpt>
      <trkpt lat="43.59902" lon="3.71164">
        <ele>137.5</ele>
        <time>2022-05-10T07:25:07Z</time>
      </trkpt>
      <trkpt lat="43.59911" lon="3.7112">
        <ele>133.5</ele>
        <time>2022-05-10T07:25:17Z</time>
      </trkpt>
      <trkpt lat="43.59922" lon="3.71076">
        <ele>128.3</ele>
        <time>2022-05-10T07:25:27Z</time>
      </trkpt>
      <trkpt lat="43.59937" lon="3.71039">
        <ele>126.6</ele>
        <time>2022-05-10T07:25:37Z</time>
      </trkpt>
      <trkpt lat="43.59941" lon="3.71025">
        <ele>125.9</ele>
        <time>2022-05-10T07:25:47Z</time>
      </trkpt>
      <trkpt lat="43.59944" lon="3.7101">
        <ele>126</ele>
        <time>2022-05-10T07:29:17Z</time>
      </trkpt>
      <trkpt lat="43.5995" lon="3.70985">
        <ele>127.1</ele>
        <time>2022-05-10T07:29:37Z</time>
      </trkpt>
      <trkpt lat="43.59957" lon="3.70957">
        <ele>129.2</ele>
        <time>2022-05-10T07:29:47Z</time>
      </trkpt>
      <trkpt lat="43.59961" lon="3.70932">
        <ele>130.2</ele>
        <time>2022-05-10T07:29:57Z</time>
      </trkpt>
      <trkpt lat="43.59973" lon="3.70902">
        <ele>130.1</ele>
        <time>2022-05-10T07:30:07Z</time>
      </trkpt>
      <trkpt lat="43.59978" lon="3.70874">
        <ele>132.1</ele>
        <time>2022-05-10T07:30:17Z</time>
      </trkpt>
      <trkpt lat="43.59981" lon="3.70846">
        <ele>133.6</ele>
        <time>2022-05-10T07:30:27Z</time>
      </trkpt>
      <trkpt lat="43.59993" lon="3.70822">
        <ele>134.4</ele>
        <time>2022-05-10T07:30:37Z</time>
      </trkpt>
      <trkpt lat="43.60011" lon="3.708">
        <ele>137.2</ele>
        <time>2022-05-10T07:30:47Z</time>
      </trkpt>
      <trkpt lat="43.60021" lon="3.70773">
        <ele>138.2</ele>
        <time>2022-05-10T07:30:57Z</time>
      </trkpt>
      <trkpt lat="43.60032" lon="3.70752">
        <ele>138.5</ele>
        <time>2022-05-10T07:31:07Z</time>
      </trkpt>
      <trkpt lat="43.60036" lon="3.70731">
        <ele>141.3</ele>
        <time>2022-05-10T07:31:17Z</time>
      </trkpt>
      <trkpt lat="43.60039" lon="3.70706">
        <ele>143.1</ele>
        <time>2022-05-10T07:31:27Z</time>
      </trkpt>
      <trkpt lat="43.60044" lon="3.7068">
        <ele>143.8</ele>
        <time>2022-05-10T07:31:37Z</time>
      </trkpt>
      <trkpt lat="43.60053" lon="3.70651">
        <ele>143</ele>
        <time>2022-05-10T07:31:47Z</time>
      </trkpt>
      <trkpt lat="43.60061" lon="3.70625">
        <ele>146.2</ele>
        <time>2022-05-10T07:31:57Z</time>
      </trkpt>
      <trkpt lat="43.60065" lon="3.70602">
        <ele>148.9</ele>
        <time>2022-05-10T07:32:07Z</time>
      </trkpt>
      <trkpt lat="43.60067" lon="3.70576">
        <ele>150.9</ele>
        <time>2022-05-10T07:32:17Z</time>
      </trkpt>
      <trkpt lat="43.60072" lon="3.7055">
        <ele>151.1</ele>
        <time>2022-05-10T07:32:27Z</time>
      </trkpt>
      <trkpt lat="43.60076" lon="3.70525">
        <ele>151.3</ele>
        <time>2022-05-10T07:32:37Z</time>
      </trkpt>
      <trkpt lat="43.60079" lon="3.70505">
        <ele>152</ele>
        <time>2022-05-10T07:32:47Z</time>
      </trkpt>
      <trkpt lat="43.60081" lon="3.70486">
        <ele>152.8</ele>
        <time>2022-05-10T07:32:57Z</time>
      </trkpt>
      <trkpt lat="43.60086" lon="3.70466">
        <ele>154.3</ele>
        <time>2022-05-10T07:33:07Z</time>
      </trkpt>
      <trkpt lat="43.60095" lon="3.70447">
        <ele>156.9</ele>
        <time>2022-05-10T07:33:17Z</time>
      </trkpt>
      <trkpt lat="43.60105" lon="3.7043">
        <ele>158.5</ele>
        <time>2022-05-10T07:33:27Z</time>
      </trkpt>
      <trkpt lat="43.60119" lon="3.70423">
        <ele>158.7</ele>
        <time>2022-05-10T07:33:37Z</time>
      </trkpt>
      <trkpt lat="43.60133" lon="3.70424">
        <ele>159.4</ele>
        <time>2022-05-10T07:33:47Z</time>
      </trkpt>
      <trkpt lat="43.60152" lon="3.70432">
        <ele>160.9</ele>
        <time>2022-05-10T07:33:57Z</time>
      </trkpt>
      <trkpt lat="43.60167" lon="3.70434">
        <ele>162.4</ele>
        <time>2022-05-10T07:34:07Z</time>
      </trkpt>
      <trkpt lat="43.60185" lon="3.70438">
        <ele>164.1</ele>
        <time>2022-05-10T07:34:17Z</time>
      </trkpt>
      <trkpt lat="43.60201" lon="3.70437">
        <ele>165.7</ele>
        <time>2022-05-10T07:34:27Z</time>
      </trkpt>
      <trkpt lat="43.60212" lon="3.70433">
        <ele>166.9</ele>
        <time>2022-05-10T07:34:37Z</time>
      </trkpt>
      <trkpt lat="43.60227" lon="3.70433">
        <ele>168.7</ele>
        <time>2022-05-10T07:34:47Z</time>
      </trkpt>
      <trkpt lat="43.60238" lon="3.70432">
        <ele>170.3</ele>
        <time>2022-05-10T07:34:57Z</time>
      </trkpt>
      <trkpt lat="43.60252" lon="3.70435">
        <ele>172.2</ele>
        <time>2022-05-10T07:35:07Z</time>
      </trkpt>
      <trkpt lat="43.60263" lon="3.70439">
        <ele>173.5</ele>
        <time>2022-05-10T07:35:17Z</time>
      </trkpt>
      <trkpt lat="43.60272" lon="3.70451">
        <ele>175.4</ele>
        <time>2022-05-10T07:35:27Z</time>
      </trkpt>
      <trkpt lat="43.6028" lon="3.70463">
        <ele>177.8</ele>
        <time>2022-05-10T07:35:37Z</time>
      </trkpt>
      <trkpt lat="43.60293" lon="3.7046">
        <ele>178.5</ele>
        <time>2022-05-10T07:35:47Z</time>
      </trkpt>
      <trkpt lat="43.60307" lon="3.70461">
        <ele>179.8</ele>
        <time>2022-05-10T07:35:57Z</time>
      </trkpt>
      <trkpt lat="43.6032" lon="3.7046">
        <ele>181.9</ele>
        <time>2022-05-10T07:36:07Z</time>
      </trkpt>
      <trkpt lat="43.60329" lon="3.70443">
        <ele>182.3</ele>
        <time>2022-05-10T07:36:17Z</time>
      </trkpt>
      <trkpt lat="43.60339" lon="3.70424">
        <ele>183.3</ele>
        <time>2022-05-10T07:36:27Z</time>
      </trkpt>
      <trkpt lat="43.6035" lon="3.7041">
        <ele>185.3</ele>
        <time>2022-05-10T07:36:37Z</time>
      </trkpt>
      <trkpt lat="43.60349" lon="3.70391">
        <ele>186</ele>
        <time>2022-05-10T07:36:47Z</time>
      </trkpt>
      <trkpt lat="43.60331" lon="3.70377">
        <ele>185.8</ele>
        <time>2022-05-10T07:36:57Z</time>
      </trkpt>
      <trkpt lat="43.6032" lon="3.70364">
        <ele>187.1</ele>
        <time>2022-05-10T07:37:07Z</time>
      </trkpt>
      <trkpt lat="43.60305" lon="3.70355">
        <ele>188.7</ele>
        <time>2022-05-10T07:37:27Z</time>
      </trkpt>
      <trkpt lat="43.60287" lon="3.70351">
        <ele>190.9</ele>
        <time>2022-05-10T07:38:07Z</time>
      </trkpt>
      <trkpt lat="43.60275" lon="3.70348">
        <ele>192.4</ele>
        <time>2022-05-10T07:38:27Z</time>
      </trkpt>
      <trkpt lat="43.60262" lon="3.70342">
        <ele>194</ele>
        <time>2022-05-10T07:38:37Z</time>
      </trkpt>
      <trkpt lat="43.60249" lon="3.70337">
        <ele>195.9</ele>
        <time>2022-05-10T07:38:47Z</time>
      </trkpt>
      <trkpt lat="43.60239" lon="3.70327">
        <ele>197.4</ele>
        <time>2022-05-10T07:38:57Z</time>
      </trkpt>
      <trkpt lat="43.60228" lon="3.70316">
        <ele>199</ele>
        <time>2022-05-10T07:39:07Z</time>
      </trkpt>
      <trkpt lat="43.60211" lon="3.70302">
        <ele>200</ele>
        <time>2022-05-10T07:39:17Z</time>
      </trkpt>
      <trkpt lat="43.60194" lon="3.70278">
        <ele>201.8</ele>
        <time>2022-05-10T07:39:27Z</time>
      </trkpt>
      <trkpt lat="43.60177" lon="3.70252">
        <ele>200</ele>
        <time>2022-05-10T07:39:37Z</time>
      </trkpt>
      <trkpt lat="43.6016" lon="3.70219">
        <ele>199.1</ele>
        <time>2022-05-10T07:39:47Z</time>
      </trkpt>
      <trkpt lat="43.60143" lon="3.70183">
        <ele>196.7</ele>
        <time>2022-05-10T07:39:57Z</time>
      </trkpt>
      <trkpt lat="43.60131" lon="3.70134">
        <ele>192.6</ele>
        <time>2022-05-10T07:40:07Z</time>
      </trkpt>
      <trkpt lat="43.60127" lon="3.70118">
        <ele>192.8</ele>
        <time>2022-05-10T07:40:47Z</time>
      </trkpt>
      <trkpt lat="43.6014" lon="3.70118">
        <ele>187.6</ele>
        <time>2022-05-10T07:41:07Z</time>
      </trkpt>
      <trkpt lat="43.60156" lon="3.70102">
        <ele>182.9</ele>
        <time>2022-05-10T07:41:17Z</time>
      </trkpt>
      <trkpt lat="43.60172" lon="3.70072">
        <ele>177.4</ele>
        <time>2022-05-10T07:41:27Z</time>
      </trkpt>
      <trkpt lat="43.60197" lon="3.70029">
        <ele>170.5</ele>
        <time>2022-05-10T07:41:37Z</time>
      </trkpt>
      <trkpt lat="43.60216" lon="3.69988">
        <ele>166.8</ele>
        <time>2022-05-10T07:41:47Z</time>
      </trkpt>
      <trkpt lat="43.60228" lon="3.69964">
        <ele>163.4</ele>
        <time>2022-05-10T07:41:57Z</time>
      </trkpt>
      <trkpt lat="43.60226" lon="3.69924">
        <ele>160.9</ele>
        <time>2022-05-10T07:42:07Z</time>
      </trkpt>
      <trkpt lat="43.60211" lon="3.69882">
        <ele>159.8</ele>
        <time>2022-05-10T07:42:17Z</time>
      </trkpt>
      <trkpt lat="43.60186" lon="3.69859">
        <ele>158.8</ele>
        <time>2022-05-10T07:42:27Z</time>
      </trkpt>
      <trkpt lat="43.60176" lon="3.69829">
        <ele>156.9</ele>
        <time>2022-05-10T07:42:37Z</time>
      </trkpt>
      <trkpt lat="43.60183" lon="3.69823">
        <ele>158.3</ele>
        <time>2022-05-10T07:42:47Z</time>
      </trkpt>
      <trkpt lat="43.60193" lon="3.69825">
        <ele>159.3</ele>
        <time>2022-05-10T07:42:57Z</time>
      </trkpt>
      <trkpt lat="43.60202" lon="3.69831">
        <ele>160.3</ele>
        <time>2022-05-10T07:43:07Z</time>
      </trkpt>
      <trkpt lat="43.60213" lon="3.69838">
        <ele>162.2</ele>
        <time>2022-05-10T07:43:17Z</time>
      </trkpt>
      <trkpt lat="43.60223" lon="3.69851">
        <ele>162.7</ele>
        <time>2022-05-10T07:43:27Z</time>
      </trkpt>
      <trkpt lat="43.60229" lon="3.69851">
        <ele>164.2</ele>
        <time>2022-05-10T07:43:37Z</time>
      </trkpt>
      <trkpt lat="43.60238" lon="3.69854">
        <ele>166</ele>
        <time>2022-05-10T07:43:47Z</time>
      </trkpt>
      <trkpt lat="43.60244" lon="3.69854">
        <ele>167.5</ele>
        <time>2022-05-10T07:43:57Z</time>
      </trkpt>
      <trkpt lat="43.60253" lon="3.69857">
        <ele>169.2</ele>
        <time>2022-05-10T07:44:07Z</time>
      </trkpt>
      <trkpt lat="43.6026" lon="3.69862">
        <ele>170.1</ele>
        <time>2022-05-10T07:44:17Z</time>
      </trkpt>
      <trkpt lat="43.60267" lon="3.69868">
        <ele>171.2</ele>
        <time>2022-05-10T07:44:27Z</time>
      </trkpt>
      <trkpt lat="43.60275" lon="3.69872">
        <ele>172.6</ele>
        <time>2022-05-10T07:44:37Z</time>
      </trkpt>
      <trkpt lat="43.60283" lon="3.69876">
        <ele>173.8</ele>
        <time>2022-05-10T07:44:47Z</time>
      </trkpt>
      <trkpt lat="43.60291" lon="3.69877">
        <ele>175</ele>
        <time>2022-05-10T07:44:57Z</time>
      </trkpt>
      <trkpt lat="43.60296" lon="3.69873">
        <ele>176</ele>
        <time>2022-05-10T07:45:07Z</time>
      </trkpt>
      <trkpt lat="43.60308" lon="3.69859">
        <ele>178.2</ele>
        <time>2022-05-10T07:45:17Z</time>
      </trkpt>
      <trkpt lat="43.6032" lon="3.69866">
        <ele>179</ele>
        <time>2022-05-10T07:45:27Z</time>
      </trkpt>
      <trkpt lat="43.60328" lon="3.69884">
        <ele>179.5</ele>
        <time>2022-05-10T07:45:37Z</time>
      </trkpt>
      <trkpt lat="43.60334" lon="3.69908">
        <ele>178.6</ele>
        <time>2022-05-10T07:45:47Z</time>
      </trkpt>
      <trkpt lat="43.60332" lon="3.69945">
        <ele>175.7</ele>
        <time>2022-05-10T07:45:57Z</time>
      </trkpt>
      <trkpt lat="43.60326" lon="3.69982">
        <ele>170.2</ele>
        <time>2022-05-10T07:46:07Z</time>
      </trkpt>
      <trkpt lat="43.60297" lon="3.70002">
        <ele>166.5</ele>
        <time>2022-05-10T07:46:17Z</time>
      </trkpt>
      <trkpt lat="43.60311" lon="3.70043">
        <ele>169.1</ele>
        <time>2022-05-10T07:46:27Z</time>
      </trkpt>
      <trkpt lat="43.60325" lon="3.70073">
        <ele>171</ele>
        <time>2022-05-10T07:46:37Z</time>
      </trkpt>
      <trkpt lat="43.60334" lon="3.70101">
        <ele>171.9</ele>
        <time>2022-05-10T07:46:47Z</time>
      </trkpt>
      <trkpt lat="43.60339" lon="3.70124">
        <ele>174.2</ele>
        <time>2022-05-10T07:46:57Z</time>
      </trkpt>
      <trkpt lat="43.60341" lon="3.70145">
        <ele>176</ele>
        <time>2022-05-10T07:47:07Z</time>
      </trkpt>
      <trkpt lat="43.60341" lon="3.70166">
        <ele>177.8</ele>
        <time>2022-05-10T07:47:17Z</time>
      </trkpt>
      <trkpt lat="43.60343" lon="3.70189">
        <ele>178.7</ele>
        <time>2022-05-10T07:47:27Z</time>
      </trkpt>
      <trkpt lat="43.60343" lon="3.70211">
        <ele>179.8</ele>
        <time>2022-05-10T07:47:37Z</time>
      </trkpt>
      <trkpt lat="43.60344" lon="3.7023">
        <ele>180.6</ele>
        <time>2022-05-10T07:47:47Z</time>
      </trkpt>
      <trkpt lat="43.60339" lon="3.70251">
        <ele>181.8</ele>
        <time>2022-05-10T07:47:57Z</time>
      </trkpt>
      <trkpt lat="43.60336" lon="3.70273">
        <ele>182.7</ele>
        <time>2022-05-10T07:48:07Z</time>
      </trkpt>
      <trkpt lat="43.60334" lon="3.70296">
        <ele>184.3</ele>
        <time>2022-05-10T07:48:17Z</time>
      </trkpt>
      <trkpt lat="43.60329" lon="3.70317">
        <ele>186.4</ele>
        <time>2022-05-10T07:48:27Z</time>
      </trkpt>
      <trkpt lat="43.60323" lon="3.70337">
        <ele>187.8</ele>
        <time>2022-05-10T07:48:37Z</time>
      </trkpt>
      <trkpt lat="43.60317" lon="3.7036">
        <ele>187.6</ele>
        <time>2022-05-10T07:48:47Z</time>
      </trkpt>
      <trkpt lat="43.60337" lon="3.70386">
        <ele>185.4</ele>
        <time>2022-05-10T07:48:57Z</time>
      </trkpt>
      <trkpt lat="43.60366" lon="3.70409">
        <ele>187.4</ele>
        <time>2022-05-10T07:49:07Z</time>
      </trkpt>
      <trkpt lat="43.60385" lon="3.70426">
        <ele>188.8</ele>
        <time>2022-05-10T07:49:17Z</time>
      </trkpt>
      <trkpt lat="43.604" lon="3.70441">
        <ele>189.5</ele>
        <time>2022-05-10T07:49:27Z</time>
      </trkpt>
      <trkpt lat="43.60411" lon="3.70431">
        <ele>191</ele>
        <time>2022-05-10T07:53:27Z</time>
      </trkpt>
      <trkpt lat="43.60424" lon="3.70416">
        <ele>193</ele>
        <time>2022-05-10T07:53:47Z</time>
      </trkpt>
      <trkpt lat="43.60437" lon="3.70406">
        <ele>194</ele>
        <time>2022-05-10T07:53:57Z</time>
      </trkpt>
      <trkpt lat="43.60449" lon="3.70395">
        <ele>195.8</ele>
        <time>2022-05-10T07:54:07Z</time>
      </trkpt>
      <trkpt lat="43.60458" lon="3.70381">
        <ele>196.6</ele>
        <time>2022-05-10T07:54:17Z</time>
      </trkpt>
      <trkpt lat="43.60456" lon="3.70362">
        <ele>198.1</ele>
        <time>2022-05-10T07:54:27Z</time>
      </trkpt>
      <trkpt lat="43.60462" lon="3.70342">
        <ele>199.5</ele>
        <time>2022-05-10T07:54:37Z</time>
      </trkpt>
      <trkpt lat="43.6048" lon="3.70345">
        <ele>198.8</ele>
        <time>2022-05-10T07:54:47Z</time>
      </trkpt>
      <trkpt lat="43.60499" lon="3.7037">
        <ele>195.7</ele>
        <time>2022-05-10T07:54:57Z</time>
      </trkpt>
      <trkpt lat="43.60523" lon="3.70387">
        <ele>192.2</ele>
        <time>2022-05-10T07:55:07Z</time>
      </trkpt>
      <trkpt lat="43.60546" lon="3.70405">
        <ele>189.4</ele>
        <time>2022-05-10T07:55:17Z</time>
      </trkpt>
      <trkpt lat="43.60575" lon="3.70418">
        <ele>186.2</ele>
        <time>2022-05-10T07:55:27Z</time>
      </trkpt>
      <trkpt lat="43.60608" lon="3.70427">
        <ele>182.9</ele>
        <time>2022-05-10T07:55:37Z</time>
      </trkpt>
      <trkpt lat="43.60634" lon="3.70441">
        <ele>182.9</ele>
        <time>2022-05-10T07:55:47Z</time>
      </trkpt>
      <trkpt lat="43.60662" lon="3.7049">
        <ele>179.2</ele>
        <time>2022-05-10T07:55:57Z</time>
      </trkpt>
      <trkpt lat="43.60684" lon="3.70518">
        <ele>177.3</ele>
        <time>2022-05-10T08:00:57Z</time>
      </trkpt>
      <trkpt lat="43.60719" lon="3.70553">
        <ele>176</ele>
        <time>2022-05-10T08:01:17Z</time>
      </trkpt>
      <trkpt lat="43.60735" lon="3.70615">
        <ele>169.9</ele>
        <time>2022-05-10T08:01:27Z</time>
      </trkpt>
      <trkpt lat="43.60758" lon="3.70657">
        <ele>167.4</ele>
        <time>2022-05-10T08:01:37Z</time>
      </trkpt>
      <trkpt lat="43.60783" lon="3.70717">
        <ele>163.3</ele>
        <time>2022-05-10T08:01:47Z</time>
      </trkpt>
      <trkpt lat="43.60818" lon="3.70742">
        <ele>161.6</ele>
        <time>2022-05-10T08:01:57Z</time>
      </trkpt>
      <trkpt lat="43.60803" lon="3.70803">
        <ele>158.2</ele>
        <time>2022-05-10T08:02:07Z</time>
      </trkpt>
      <trkpt lat="43.60815" lon="3.70879">
        <ele>158.2</ele>
        <time>2022-05-10T08:02:17Z</time>
      </trkpt>
      <trkpt lat="43.60803" lon="3.70953">
        <ele>151.9</ele>
        <time>2022-05-10T08:02:27Z</time>
      </trkpt>
      <trkpt lat="43.60798" lon="3.70996">
        <ele>151.5</ele>
        <time>2022-05-10T08:02:37Z</time>
      </trkpt>
      <trkpt lat="43.60806" lon="3.71007">
        <ele>152</ele>
        <time>2022-05-10T08:02:47Z</time>
      </trkpt>
      <trkpt lat="43.60832" lon="3.70991">
        <ele>153.6</ele>
        <time>2022-05-10T08:02:57Z</time>
      </trkpt>
      <trkpt lat="43.60861" lon="3.70977">
        <ele>153.5</ele>
        <time>2022-05-10T08:03:07Z</time>
      </trkpt>
      <trkpt lat="43.60886" lon="3.70965">
        <ele>156.1</ele>
        <time>2022-05-10T08:03:17Z</time>
      </trkpt>
      <trkpt lat="43.60918" lon="3.70955">
        <ele>157.6</ele>
        <time>2022-05-10T08:03:27Z</time>
      </trkpt>
      <trkpt lat="43.60946" lon="3.70946">
        <ele>158.4</ele>
        <time>2022-05-10T08:03:37Z</time>
      </trkpt>
      <trkpt lat="43.60976" lon="3.70933">
        <ele>159.9</ele>
        <time>2022-05-10T08:03:47Z</time>
      </trkpt>
      <trkpt lat="43.61007" lon="3.70932">
        <ele>160.7</ele>
        <time>2022-05-10T08:03:57Z</time>
      </trkpt>
      <trkpt lat="43.61038" lon="3.70941">
        <ele>161.4</ele>
        <time>2022-05-10T08:04:07Z</time>
      </trkpt>
      <trkpt lat="43.61069" lon="3.70951">
        <ele>162.2</ele>
        <time>2022-05-10T08:04:17Z</time>
      </trkpt>
      <trkpt lat="43.61099" lon="3.70956">
        <ele>163.5</ele>
        <time>2022-05-10T08:04:27Z</time>
      </trkpt>
      <trkpt lat="43.61126" lon="3.70965">
        <ele>165</ele>
        <time>2022-05-10T08:04:37Z</time>
      </trkpt>
      <trkpt lat="43.61152" lon="3.70968">
        <ele>166.4</ele>
        <time>2022-05-10T08:04:47Z</time>
      </trkpt>
      <trkpt lat="43.61175" lon="3.70966">
        <ele>168</ele>
        <time>2022-05-10T08:04:57Z</time>
      </trkpt>
      <trkpt lat="43.612" lon="3.70966">
        <ele>169</ele>
        <time>2022-05-10T08:05:07Z</time>
      </trkpt>
      <trkpt lat="43.61225" lon="3.70966">
        <ele>170.6</ele>
        <time>2022-05-10T08:05:17Z</time>
      </trkpt>
      <trkpt lat="43.61248" lon="3.70968">
        <ele>172</ele>
        <time>2022-05-10T08:05:27Z</time>
      </trkpt>
      <trkpt lat="43.61267" lon="3.70971">
        <ele>173.2</ele>
        <time>2022-05-10T08:05:37Z</time>
      </trkpt>
      <trkpt lat="43.61289" lon="3.70959">
        <ele>174.7</ele>
        <time>2022-05-10T08:05:47Z</time>
      </trkpt>
      <trkpt lat="43.61307" lon="3.70941">
        <ele>176.2</ele>
        <time>2022-05-10T08:05:57Z</time>
      </trkpt>
      <trkpt lat="43.61319" lon="3.70912">
        <ele>177.5</ele>
        <time>2022-05-10T08:06:07Z</time>
      </trkpt>
      <trkpt lat="43.61316" lon="3.70884">
        <ele>178.1</ele>
        <time>2022-05-10T08:06:17Z</time>
      </trkpt>
      <trkpt lat="43.6133" lon="3.70875">
        <ele>179.8</ele>
        <time>2022-05-10T08:06:27Z</time>
      </trkpt>
      <trkpt lat="43.61346" lon="3.70897">
        <ele>180.4</ele>
        <time>2022-05-10T08:06:37Z</time>
      </trkpt>
      <trkpt lat="43.6135" lon="3.70924">
        <ele>181.1</ele>
        <time>2022-05-10T08:06:47Z</time>
      </trkpt>
      <trkpt lat="43.61359" lon="3.70901">
        <ele>181.8</ele>
        <time>2022-05-10T08:06:57Z</time>
      </trkpt>
      <trkpt lat="43.61366" lon="3.70872">
        <ele>183.1</ele>
        <time>2022-05-10T08:07:07Z</time>
      </trkpt>
      <trkpt lat="43.61381" lon="3.70857">
        <ele>185.3</ele>
        <time>2022-05-10T08:07:17Z</time>
      </trkpt>
      <trkpt lat="43.61392" lon="3.7084">
        <ele>187.1</ele>
        <time>2022-05-10T08:07:27Z</time>
      </trkpt>
      <trkpt lat="43.61401" lon="3.70826">
        <ele>189</ele>
        <time>2022-05-10T08:07:37Z</time>
      </trkpt>
      <trkpt lat="43.61408" lon="3.70811">
        <ele>190.9</ele>
        <time>2022-05-10T08:07:47Z</time>
      </trkpt>
      <trkpt lat="43.61417" lon="3.70798">
        <ele>192.3</ele>
        <time>2022-05-10T08:07:57Z</time>
      </trkpt>
      <trkpt lat="43.61427" lon="3.70784">
        <ele>193.1</ele>
        <time>2022-05-10T08:08:07Z</time>
      </trkpt>
      <trkpt lat="43.6144" lon="3.70768">
        <ele>194.2</ele>
        <time>2022-05-10T08:08:17Z</time>
      </trkpt>
      <trkpt lat="43.61455" lon="3.70748">
        <ele>195</ele>
        <time>2022-05-10T08:08:27Z</time>
      </trkpt>
      <trkpt lat="43.61473" lon="3.70726">
        <ele>195.9</ele>
        <time>2022-05-10T08:08:37Z</time>
      </trkpt>
      <trkpt lat="43.61494" lon="3.70699">
        <ele>196</ele>
        <time>2022-05-10T08:08:47Z</time>
      </trkpt>
      <trkpt lat="43.61518" lon="3.7067">
        <ele>195.4</ele>
        <time>2022-05-10T08:08:57Z</time>
      </trkpt>
      <trkpt lat="43.61544" lon="3.70636">
        <ele>193.9</ele>
        <time>2022-05-10T08:09:07Z</time>
      </trkpt>
      <trkpt lat="43.61589" lon="3.7058">
        <ele>191.8</ele>
        <time>2022-05-10T08:09:17Z</time>
      </trkpt>
      <trkpt lat="43.6164" lon="3.70538">
        <ele>191.4</ele>
        <time>2022-05-10T08:09:27Z</time>
      </trkpt>
      <trkpt lat="43.61682" lon="3.70516">
        <ele>192</ele>
        <time>2022-05-10T08:09:37Z</time>
      </trkpt>
      <trkpt lat="43.61723" lon="3.7049">
        <ele>192</ele>
        <time>2022-05-10T08:09:47Z</time>
      </trkpt>
      <trkpt lat="43.61764" lon="3.70462">
        <ele>190.9</ele>
        <time>2022-05-10T08:09:57Z</time>
      </trkpt>
      <trkpt lat="43.61805" lon="3.70432">
        <ele>190.5</ele>
        <time>2022-05-10T08:10:07Z</time>
      </trkpt>
      <trkpt lat="43.61844" lon="3.70379">
        <ele>189.6</ele>
        <time>2022-05-10T08:10:17Z</time>
      </trkpt>
      <trkpt lat="43.61878" lon="3.70318">
        <ele>187.2</ele>
        <time>2022-05-10T08:10:27Z</time>
      </trkpt>
      <trkpt lat="43.61914" lon="3.70235">
        <ele>181.3</ele>
        <time>2022-05-10T08:10:37Z</time>
      </trkpt>
      <trkpt lat="43.61948" lon="3.70153">
        <ele>179.4</ele>
        <time>2022-05-10T08:10:47Z</time>
      </trkpt>
      <trkpt lat="43.61976" lon="3.70092">
        <ele>177.6</ele>
        <time>2022-05-10T08:10:57Z</time>
      </trkpt>
      <trkpt lat="43.61999" lon="3.70034">
        <ele>172.8</ele>
        <time>2022-05-10T08:11:07Z</time>
      </trkpt>
      <trkpt lat="43.62044" lon="3.70031">
        <ele>170.3</ele>
        <time>2022-05-10T08:11:17Z</time>
      </trkpt>
      <trkpt lat="43.62108" lon="3.70011">
        <ele>167.3</ele>
        <time>2022-05-10T08:11:27Z</time>
      </trkpt>
      <trkpt lat="43.62169" lon="3.69983">
        <ele>164.2</ele>
        <time>2022-05-10T08:11:37Z</time>
      </trkpt>
      <trkpt lat="43.62226" lon="3.69961">
        <ele>163</ele>
        <time>2022-05-10T08:11:47Z</time>
      </trkpt>
      <trkpt lat="43.6228" lon="3.69934">
        <ele>162.9</ele>
        <time>2022-05-10T08:11:57Z</time>
      </trkpt>
      <trkpt lat="43.62328" lon="3.69921">
        <ele>161.5</ele>
        <time>2022-05-10T08:12:07Z</time>
      </trkpt>
      <trkpt lat="43.62386" lon="3.69898">
        <ele>156.5</ele>
        <time>2022-05-10T08:12:17Z</time>
      </trkpt>
      <trkpt lat="43.62453" lon="3.69874">
        <ele>152.5</ele>
        <time>2022-05-10T08:12:27Z</time>
      </trkpt>
      <trkpt lat="43.62487" lon="3.699">
        <ele>152.3</ele>
        <time>2022-05-10T08:12:37Z</time>
      </trkpt>
      <trkpt lat="43.62509" lon="3.69933">
        <ele>154.9</ele>
        <time>2022-05-10T08:12:47Z</time>
      </trkpt>
      <trkpt lat="43.62528" lon="3.69966">
        <ele>156.8</ele>
        <time>2022-05-10T08:12:57Z</time>
      </trkpt>
      <trkpt lat="43.62548" lon="3.69995">
        <ele>156.3</ele>
        <time>2022-05-10T08:13:07Z</time>
      </trkpt>
      <trkpt lat="43.62568" lon="3.70027">
        <ele>155.1</ele>
        <time>2022-05-10T08:13:17Z</time>
      </trkpt>
      <trkpt lat="43.62593" lon="3.70064">
        <ele>153.2</ele>
        <time>2022-05-10T08:13:27Z</time>
      </trkpt>
      <trkpt lat="43.62627" lon="3.70088">
        <ele>149.4</ele>
        <time>2022-05-10T08:13:37Z</time>
      </trkpt>
      <trkpt lat="43.62647" lon="3.70095">
        <ele>147.8</ele>
        <time>2022-05-10T08:13:47Z</time>
      </trkpt>
      <trkpt lat="43.62678" lon="3.70132">
        <ele>146.1</ele>
        <time>2022-05-10T08:13:57Z</time>
      </trkpt>
      <trkpt lat="43.62679" lon="3.70183">
        <ele>146.5</ele>
        <time>2022-05-10T08:14:07Z</time>
      </trkpt>
      <trkpt lat="43.62668" lon="3.70238">
        <ele>146.4</ele>
        <time>2022-05-10T08:14:17Z</time>
      </trkpt>
      <trkpt lat="43.62657" lon="3.70292">
        <ele>146.2</ele>
        <time>2022-05-10T08:14:27Z</time>
      </trkpt>
      <trkpt lat="43.62648" lon="3.70341">
        <ele>146.4</ele>
        <time>2022-05-10T08:14:37Z</time>
      </trkpt>
      <trkpt lat="43.62639" lon="3.70387">
        <ele>147.9</ele>
        <time>2022-05-10T08:14:47Z</time>
      </trkpt>
      <trkpt lat="43.62632" lon="3.70434">
        <ele>149</ele>
        <time>2022-05-10T08:14:57Z</time>
      </trkpt>
      <trkpt lat="43.62622" lon="3.70479">
        <ele>150.3</ele>
        <time>2022-05-10T08:15:07Z</time>
      </trkpt>
      <trkpt lat="43.62617" lon="3.70508">
        <ele>150.6</ele>
        <time>2022-05-10T08:15:17Z</time>
      </trkpt>
      <trkpt lat="43.62608" lon="3.70556">
        <ele>150.4</ele>
        <time>2022-05-10T08:15:27Z</time>
      </trkpt>
      <trkpt lat="43.62598" lon="3.70611">
        <ele>152</ele>
        <time>2022-05-10T08:15:37Z</time>
      </trkpt>
      <trkpt lat="43.62588" lon="3.70669">
        <ele>150.3</ele>
        <time>2022-05-10T08:15:47Z</time>
      </trkpt>
      <trkpt lat="43.62579" lon="3.7073">
        <ele>149.6</ele>
        <time>2022-05-10T08:15:57Z</time>
      </trkpt>
      <trkpt lat="43.62577" lon="3.70802">
        <ele>147.9</ele>
        <time>2022-05-10T08:16:07Z</time>
      </trkpt>
      <trkpt lat="43.62587" lon="3.70878">
        <ele>147</ele>
        <time>2022-05-10T08:16:17Z</time>
      </trkpt>
      <trkpt lat="43.62603" lon="3.70954">
        <ele>144.4</ele>
        <time>2022-05-10T08:16:27Z</time>
      </trkpt>
      <trkpt lat="43.62621" lon="3.7103">
        <ele>144.3</ele>
        <time>2022-05-10T08:16:37Z</time>
      </trkpt>
      <trkpt lat="43.6263" lon="3.7111">
        <ele>143</ele>
        <time>2022-05-10T08:16:47Z</time>
      </trkpt>
      <trkpt lat="43.62628" lon="3.71192">
        <ele>142.3</ele>
        <time>2022-05-10T08:16:57Z</time>
      </trkpt>
      <trkpt lat="43.62614" lon="3.71269">
        <ele>142</ele>
        <time>2022-05-10T08:17:07Z</time>
      </trkpt>
      <trkpt lat="43.62595" lon="3.71341">
        <ele>141.9</ele>
        <time>2022-05-10T08:17:17Z</time>
      </trkpt>
      <trkpt lat="43.6258" lon="3.71405">
        <ele>140.3</ele>
        <time>2022-05-10T08:17:27Z</time>
      </trkpt>
      <trkpt lat="43.62574" lon="3.71431">
        <ele>139</ele>
        <time>2022-05-10T08:17:47Z</time>
      </trkpt>
      <trkpt lat="43.62561" lon="3.71476">
        <ele>137.8</ele>
        <time>2022-05-10T08:18:07Z</time>
      </trkpt>
      <trkpt lat="43.62542" lon="3.7155">
        <ele>136.6</ele>
        <time>2022-05-10T08:18:17Z</time>
      </trkpt>
      <trkpt lat="43.62519" lon="3.71638">
        <ele>136.3</ele>
        <time>2022-05-10T08:18:27Z</time>
      </trkpt>
      <trkpt lat="43.62498" lon="3.71722">
        <ele>136.4</ele>
        <time>2022-05-10T08:18:37Z</time>
      </trkpt>
      <trkpt lat="43.62474" lon="3.71806">
        <ele>134.9</ele>
        <time>2022-05-10T08:18:47Z</time>
      </trkpt>
      <trkpt lat="43.62456" lon="3.71893">
        <ele>133.1</ele>
        <time>2022-05-10T08:18:57Z</time>
      </trkpt>
      <trkpt lat="43.62455" lon="3.71922">
        <ele>134.9</ele>
        <time>2022-05-10T08:22:37Z</time>
      </trkpt>
      <trkpt lat="43.62449" lon="3.71977">
        <ele>134.7</ele>
        <time>2022-05-10T08:22:57Z</time>
      </trkpt>
      <trkpt lat="43.62443" lon="3.72049">
        <ele>132.8</ele>
        <time>2022-05-10T08:23:07Z</time>
      </trkpt>
      <trkpt lat="43.62439" lon="3.72129">
        <ele>131</ele>
        <time>2022-05-10T08:23:17Z</time>
      </trkpt>
      <trkpt lat="43.62435" lon="3.72214">
        <ele>130.7</ele>
        <time>2022-05-10T08:23:27Z</time>
      </trkpt>
      <trkpt lat="43.62433" lon="3.72297">
        <ele>129.2</ele>
        <time>2022-05-10T08:23:37Z</time>
      </trkpt>
      <trkpt lat="43.62431" lon="3.72384">
        <ele>128.6</ele>
        <time>2022-05-10T08:23:47Z</time>
      </trkpt>
      <trkpt lat="43.62432" lon="3.72477">
        <ele>127.8</ele>
        <time>2022-05-10T08:23:57Z</time>
      </trkpt>
      <trkpt lat="43.62434" lon="3.7257">
        <ele>127.9</ele>
        <time>2022-05-10T08:24:07Z</time>
      </trkpt>
      <trkpt lat="43.62438" lon="3.72663">
        <ele>122.1</ele>
        <time>2022-05-10T08:24:17Z</time>
      </trkpt>
      <trkpt lat="43.62444" lon="3.72761">
        <ele>121.6</ele>
        <time>2022-05-10T08:24:27Z</time>
      </trkpt>
      <trkpt lat="43.62451" lon="3.72855">
        <ele>119.8</ele>
        <time>2022-05-10T08:24:37Z</time>
      </trkpt>
      <trkpt lat="43.6246" lon="3.72949">
        <ele>118.4</ele>
        <time>2022-05-10T08:24:47Z</time>
      </trkpt>
      <trkpt lat="43.62468" lon="3.73043">
        <ele>117.1</ele>
        <time>2022-05-10T08:24:57Z</time>
      </trkpt>
      <trkpt lat="43.62477" lon="3.73136">
        <ele>116.1</ele>
        <time>2022-05-10T08:25:07Z</time>
      </trkpt>
      <trkpt lat="43.62485" lon="3.73224">
        <ele>115.5</ele>
        <time>2022-05-10T08:25:17Z</time>
      </trkpt>
      <trkpt lat="43.62492" lon="3.73305">
        <ele>115.9</ele>
        <time>2022-05-10T08:25:27Z</time>
      </trkpt>
      <trkpt lat="43.62497" lon="3.73382">
        <ele>116.4</ele>
        <time>2022-05-10T08:25:37Z</time>
      </trkpt>
      <trkpt lat="43.62499" lon="3.73459">
        <ele>116.3</ele>
        <time>2022-05-10T08:25:47Z</time>
      </trkpt>
      <trkpt lat="43.62493" lon="3.73534">
        <ele>119</ele>
        <time>2022-05-10T08:25:57Z</time>
      </trkpt>
      <trkpt lat="43.62479" lon="3.73611">
        <ele>115.6</ele>
        <time>2022-05-10T08:26:07Z</time>
      </trkpt>
      <trkpt lat="43.62461" lon="3.73683">
        <ele>114.5</ele>
        <time>2022-05-10T08:26:17Z</time>
      </trkpt>
      <trkpt lat="43.62444" lon="3.73751">
        <ele>113.1</ele>
        <time>2022-05-10T08:26:27Z</time>
      </trkpt>
      <trkpt lat="43.62427" lon="3.73809">
        <ele>113.6</ele>
        <time>2022-05-10T08:26:37Z</time>
      </trkpt>
      <trkpt lat="43.62414" lon="3.73864">
        <ele>113.3</ele>
        <time>2022-05-10T08:26:47Z</time>
      </trkpt>
      <trkpt lat="43.62408" lon="3.73911">
        <ele>112</ele>
        <time>2022-05-10T08:26:57Z</time>
      </trkpt>
      <trkpt lat="43.62404" lon="3.73982">
        <ele>109.8</ele>
        <time>2022-05-10T08:27:07Z</time>
      </trkpt>
      <trkpt lat="43.62398" lon="3.74054">
        <ele>111</ele>
        <time>2022-05-10T08:27:17Z</time>
      </trkpt>
      <trkpt lat="43.6239" lon="3.74127">
        <ele>111.9</ele>
        <time>2022-05-10T08:27:27Z</time>
      </trkpt>
      <trkpt lat="43.62373" lon="3.74194">
        <ele>113.7</ele>
        <time>2022-05-10T08:27:37Z</time>
      </trkpt>
      <trkpt lat="43.62345" lon="3.74255">
        <ele>113.3</ele>
        <time>2022-05-10T08:27:47Z</time>
      </trkpt>
      <trkpt lat="43.6231" lon="3.74305">
        <ele>110.9</ele>
        <time>2022-05-10T08:27:57Z</time>
      </trkpt>
      <trkpt lat="43.62269" lon="3.74352">
        <ele>107.8</ele>
        <time>2022-05-10T08:28:07Z</time>
      </trkpt>
      <trkpt lat="43.62228" lon="3.74399">
        <ele>106.7</ele>
        <time>2022-05-10T08:28:17Z</time>
      </trkpt>
      <trkpt lat="43.62193" lon="3.7445">
        <ele>109.4</ele>
        <time>2022-05-10T08:28:27Z</time>
      </trkpt>
      <trkpt lat="43.62166" lon="3.74509">
        <ele>109.5</ele>
        <time>2022-05-10T08:28:37Z</time>
      </trkpt>
      <trkpt lat="43.62148" lon="3.74574">
        <ele>109.6</ele>
        <time>2022-05-10T08:28:47Z</time>
      </trkpt>
      <trkpt lat="43.62135" lon="3.74639">
        <ele>109.2</ele>
        <time>2022-05-10T08:28:57Z</time>
      </trkpt>
      <trkpt lat="43.62122" lon="3.74706">
        <ele>109.4</ele>
        <time>2022-05-10T08:29:07Z</time>
      </trkpt>
      <trkpt lat="43.62115" lon="3.74772">
        <ele>107.5</ele>
        <time>2022-05-10T08:29:17Z</time>
      </trkpt>
      <trkpt lat="43.62111" lon="3.74847">
        <ele>105.5</ele>
        <time>2022-05-10T08:29:27Z</time>
      </trkpt>
      <trkpt lat="43.62106" lon="3.74887">
        <ele>107.5</ele>
        <time>2022-05-10T08:29:37Z</time>
      </trkpt>
      <trkpt lat="43.62097" lon="3.74929">
        <ele>108.6</ele>
        <time>2022-05-10T08:29:47Z</time>
      </trkpt>
      <trkpt lat="43.62088" lon="3.74967">
        <ele>109.6</ele>
        <time>2022-05-10T08:29:57Z</time>
      </trkpt>
      <trkpt lat="43.62077" lon="3.75001">
        <ele>110.7</ele>
        <time>2022-05-10T08:30:07Z</time>
      </trkpt>
      <trkpt lat="43.62069" lon="3.75033">
        <ele>112.5</ele>
        <time>2022-05-10T08:30:17Z</time>
      </trkpt>
      <trkpt lat="43.62059" lon="3.75069">
        <ele>113.3</ele>
        <time>2022-05-10T08:30:27Z</time>
      </trkpt>
      <trkpt lat="43.62058" lon="3.75104">
        <ele>114.4</ele>
        <time>2022-05-10T08:30:37Z</time>
      </trkpt>
      <trkpt lat="43.62061" lon="3.75142">
        <ele>115.5</ele>
        <time>2022-05-10T08:30:47Z</time>
      </trkpt>
      <trkpt lat="43.62066" lon="3.7518">
        <ele>117</ele>
        <time>2022-05-10T08:30:57Z</time>
      </trkpt>
      <trkpt lat="43.62074" lon="3.75216">
        <ele>115.6</ele>
        <time>2022-05-10T08:31:07Z</time>
      </trkpt>
      <trkpt lat="43.62084" lon="3.75248">
        <ele>115.2</ele>
        <time>2022-05-10T08:31:17Z</time>
      </trkpt>
      <trkpt lat="43.62096" lon="3.75281">
        <ele>114.2</ele>
        <time>2022-05-10T08:31:27Z</time>
      </trkpt>
      <trkpt lat="43.62108" lon="3.75315">
        <ele>115.4</ele>
        <time>2022-05-10T08:31:37Z</time>
      </trkpt>
      <trkpt lat="43.62121" lon="3.75349">
        <ele>115.6</ele>
        <time>2022-05-10T08:31:47Z</time>
      </trkpt>
      <trkpt lat="43.62135" lon="3.75383">
        <ele>117.7</ele>
        <time>2022-05-10T08:31:57Z</time>
      </trkpt>
      <trkpt lat="43.6215" lon="3.75417">
        <ele>119.2</ele>
        <time>2022-05-10T08:32:07Z</time>
      </trkpt>
      <trkpt lat="43.62167" lon="3.75453">
        <ele>121.1</ele>
        <time>2022-05-10T08:32:17Z</time>
      </trkpt>
      <trkpt lat="43.62188" lon="3.75488">
        <ele>123.1</ele>
        <time>2022-05-10T08:32:27Z</time>
      </trkpt>
      <trkpt lat="43.62208" lon="3.75518">
        <ele>124.5</ele>
        <time>2022-05-10T08:32:37Z</time>
      </trkpt>
      <trkpt lat="43.62228" lon="3.7555">
        <ele>126.3</ele>
        <time>2022-05-10T08:32:47Z</time>
      </trkpt>
      <trkpt lat="43.62245" lon="3.75585">
        <ele>125.9</ele>
        <time>2022-05-10T08:32:57Z</time>
      </trkpt>
      <trkpt lat="43.62259" lon="3.75624">
        <ele>126.9</ele>
        <time>2022-05-10T08:33:07Z</time>
      </trkpt>
      <trkpt lat="43.62272" lon="3.75669">
        <ele>125.3</ele>
        <time>2022-05-10T08:33:17Z</time>
      </trkpt>
      <trkpt lat="43.62278" lon="3.75718">
        <ele>125.3</ele>
        <time>2022-05-10T08:33:27Z</time>
      </trkpt>
      <trkpt lat="43.62281" lon="3.7577">
        <ele>127.4</ele>
        <time>2022-05-10T08:33:37Z</time>
      </trkpt>
      <trkpt lat="43.62281" lon="3.75825">
        <ele>127.2</ele>
        <time>2022-05-10T08:33:47Z</time>
      </trkpt>
      <trkpt lat="43.62275" lon="3.75885">
        <ele>124.7</ele>
        <time>2022-05-10T08:33:57Z</time>
      </trkpt>
      <trkpt lat="43.62278" lon="3.75954">
        <ele>125</ele>
        <time>2022-05-10T08:34:07Z</time>
      </trkpt>
      <trkpt lat="43.62279" lon="3.76022">
        <ele>124.5</ele>
        <time>2022-05-10T08:34:17Z</time>
      </trkpt>
      <trkpt lat="43.62276" lon="3.76088">
        <ele>123.6</ele>
        <time>2022-05-10T08:34:27Z</time>
      </trkpt>
      <trkpt lat="43.62277" lon="3.76155">
        <ele>123.9</ele>
        <time>2022-05-10T08:34:37Z</time>
      </trkpt>
      <trkpt lat="43.62274" lon="3.76225">
        <ele>123.9</ele>
        <time>2022-05-10T08:34:47Z</time>
      </trkpt>
      <trkpt lat="43.62269" lon="3.76291">
        <ele>122.1</ele>
        <time>2022-05-10T08:34:57Z</time>
      </trkpt>
      <trkpt lat="43.62261" lon="3.76363">
        <ele>121</ele>
        <time>2022-05-10T08:35:07Z</time>
      </trkpt>
      <trkpt lat="43.6225" lon="3.76435">
        <ele>120.3</ele>
        <time>2022-05-10T08:35:17Z</time>
      </trkpt>
      <trkpt lat="43.62231" lon="3.76513">
        <ele>119.1</ele>
        <time>2022-05-10T08:35:27Z</time>
      </trkpt>
      <trkpt lat="43.62213" lon="3.76586">
        <ele>118.5</ele>
        <time>2022-05-10T08:35:37Z</time>
      </trkpt>
      <trkpt lat="43.6219" lon="3.76671">
        <ele>117.5</ele>
        <time>2022-05-10T08:35:47Z</time>
      </trkpt>
      <trkpt lat="43.62164" lon="3.76762">
        <ele>115</ele>
        <time>2022-05-10T08:35:57Z</time>
      </trkpt>
      <trkpt lat="43.62144" lon="3.76835">
        <ele>114.4</ele>
        <time>2022-05-10T08:36:07Z</time>
      </trkpt>
      <trkpt lat="43.62111" lon="3.76929">
        <ele>113.5</ele>
        <time>2022-05-10T08:36:17Z</time>
      </trkpt>
      <trkpt lat="43.62074" lon="3.77018">
        <ele>110.9</ele>
        <time>2022-05-10T08:36:27Z</time>
      </trkpt>
      <trkpt lat="43.62042" lon="3.77094">
        <ele>103.7</ele>
        <time>2022-05-10T08:36:37Z</time>
      </trkpt>
      <trkpt lat="43.62013" lon="3.77166">
        <ele>103.2</ele>
        <time>2022-05-10T08:36:47Z</time>
      </trkpt>
      <trkpt lat="43.61984" lon="3.77232">
        <ele>106.3</ele>
        <time>2022-05-10T08:36:57Z</time>
      </trkpt>
      <trkpt lat="43.6196" lon="3.77295">
        <ele>106.9</ele>
        <time>2022-05-10T08:37:07Z</time>
      </trkpt>
      <trkpt lat="43.6193" lon="3.77365">
        <ele>105.2</ele>
        <time>2022-05-10T08:37:17Z</time>
      </trkpt>
      <trkpt lat="43.61906" lon="3.77423">
        <ele>102.7</ele>
        <time>2022-05-10T08:37:27Z</time>
      </trkpt>
      <trkpt lat="43.61902" lon="3.77466">
        <ele>100.8</ele>
        <time>2022-05-10T08:37:37Z</time>
      </trkpt>
      <trkpt lat="43.61897" lon="3.77529">
        <ele>97.4</ele>
        <time>2022-05-10T08:37:47Z</time>
      </trkpt>
      <trkpt lat="43.61874" lon="3.77601">
        <ele>96.6</ele>
        <time>2022-05-10T08:37:57Z</time>
      </trkpt>
      <trkpt lat="43.61864" lon="3.77686">
        <ele>94.1</ele>
        <time>2022-05-10T08:38:07Z</time>
      </trkpt>
      <trkpt lat="43.61842" lon="3.77771">
        <ele>92.6</ele>
        <time>2022-05-10T08:38:17Z</time>
      </trkpt>
      <trkpt lat="43.61819" lon="3.77851">
        <ele>92.7</ele>
        <time>2022-05-10T08:38:27Z</time>
      </trkpt>
      <trkpt lat="43.61837" lon="3.7791">
        <ele>90.8</ele>
        <time>2022-05-10T08:38:37Z</time>
      </trkpt>
      <trkpt lat="43.61829" lon="3.78002">
        <ele>87</ele>
        <time>2022-05-10T08:38:47Z</time>
      </trkpt>
      <trkpt lat="43.61786" lon="3.78074">
        <ele>85.8</ele>
        <time>2022-05-10T08:38:57Z</time>
      </trkpt>
      <trkpt lat="43.61752" lon="3.78145">
        <ele>84.5</ele>
        <time>2022-05-10T08:39:07Z</time>
      </trkpt>
      <trkpt lat="43.61731" lon="3.78234">
        <ele>83</ele>
        <time>2022-05-10T08:39:17Z</time>
      </trkpt>
      <trkpt lat="43.61715" lon="3.78332">
        <ele>79.8</ele>
        <time>2022-05-10T08:39:27Z</time>
      </trkpt>
      <trkpt lat="43.61727" lon="3.78419">
        <ele>81.2</ele>
        <time>2022-05-10T08:39:37Z</time>
      </trkpt>
      <trkpt lat="43.61723" lon="3.78488">
        <ele>80.4</ele>
        <time>2022-05-10T08:39:47Z</time>
      </trkpt>
      <trkpt lat="43.61695" lon="3.7856">
        <ele>75.5</ele>
        <time>2022-05-10T08:39:57Z</time>
      </trkpt>
      <trkpt lat="43.61648" lon="3.78642">
        <ele>68.9</ele>
        <time>2022-05-10T08:40:07Z</time>
      </trkpt>
      <trkpt lat="43.61608" lon="3.78699">
        <ele>64.1</ele>
        <time>2022-05-10T08:40:17Z</time>
      </trkpt>
      <trkpt lat="43.61581" lon="3.78749">
        <ele>59.5</ele>
        <time>2022-05-10T08:40:27Z</time>
      </trkpt>
      <trkpt lat="43.6156" lon="3.78788">
        <ele>59.2</ele>
        <time>2022-05-10T08:40:37Z</time>
      </trkpt>
      <trkpt lat="43.61551" lon="3.78871">
        <ele>59.1</ele>
        <time>2022-05-10T08:40:47Z</time>
      </trkpt>
      <trkpt lat="43.61561" lon="3.78933">
        <ele>58.1</ele>
        <time>2022-05-10T08:40:57Z</time>
      </trkpt>
      <trkpt lat="43.61566" lon="3.78982">
        <ele>58.6</ele>
        <time>2022-05-10T08:41:07Z</time>
      </trkpt>
      <trkpt lat="43.61562" lon="3.79045">
        <ele>58.1</ele>
        <time>2022-05-10T08:41:17Z</time>
      </trkpt>
      <trkpt lat="43.61549" lon="3.79116">
        <ele>55.9</ele>
        <time>2022-05-10T08:41:27Z</time>
      </trkpt>
      <trkpt lat="43.61551" lon="3.79175">
        <ele>56.5</ele>
        <time>2022-05-10T08:41:37Z</time>
      </trkpt>
      <trkpt lat="43.61567" lon="3.79209">
        <ele>58.2</ele>
        <time>2022-05-10T08:41:47Z</time>
      </trkpt>
      <trkpt lat="43.61587" lon="3.79239">
        <ele>59.6</ele>
        <time>2022-05-10T08:41:57Z</time>
      </trkpt>
      <trkpt lat="43.61613" lon="3.79273">
        <ele>59.5</ele>
        <time>2022-05-10T08:42:07Z</time>
      </trkpt>
      <trkpt lat="43.61634" lon="3.79307">
        <ele>59.8</ele>
        <time>2022-05-10T08:42:17Z</time>
      </trkpt>
      <trkpt lat="43.6161" lon="3.79326">
        <ele>58.2</ele>
        <time>2022-05-10T08:42:27Z</time>
      </trkpt>
      <trkpt lat="43.61568" lon="3.79357">
        <ele>56.8</ele>
        <time>2022-05-10T08:42:37Z</time>
      </trkpt>
      <trkpt lat="43.61519" lon="3.7938">
        <ele>54.7</ele>
        <time>2022-05-10T08:42:47Z</time>
      </trkpt>
      <trkpt lat="43.61476" lon="3.79423">
        <ele>53.2</ele>
        <time>2022-05-10T08:42:57Z</time>
      </trkpt>
      <trkpt lat="43.61474" lon="3.7949">
        <ele>53.1</ele>
        <time>2022-05-10T08:43:07Z</time>
      </trkpt>
      <trkpt lat="43.61473" lon="3.79553">
        <ele>53</ele>
        <time>2022-05-10T08:43:17Z</time>
      </trkpt>
      <trkpt lat="43.61453" lon="3.79584">
        <ele>53.3</ele>
        <time>2022-05-10T08:43:27Z</time>
      </trkpt>
      <trkpt lat="43.61446" lon="3.79637">
        <ele>54</ele>
        <time>2022-05-10T08:43:37Z</time>
      </trkpt>
      <trkpt lat="43.6143" lon="3.79682">
        <ele>56.6</ele>
        <time>2022-05-10T08:43:47Z</time>
      </trkpt>
      <trkpt lat="43.6142" lon="3.79716">
        <ele>57.1</ele>
        <time>2022-05-10T08:43:57Z</time>
      </trkpt>
      <trkpt lat="43.61409" lon="3.79752">
        <ele>58.4</ele>
        <time>2022-05-10T08:44:07Z</time>
      </trkpt>
      <trkpt lat="43.61398" lon="3.79789">
        <ele>60.3</ele>
        <time>2022-05-10T08:44:17Z</time>
      </trkpt>
      <trkpt lat="43.61392" lon="3.79826">
        <ele>61.6</ele>
        <time>2022-05-10T08:44:27Z</time>
      </trkpt>
      <trkpt lat="43.61382" lon="3.7986">
        <ele>62.5</ele>
        <time>2022-05-10T08:44:37Z</time>
      </trkpt>
      <trkpt lat="43.61384" lon="3.79895">
        <ele>63.2</ele>
        <time>2022-05-10T08:44:47Z</time>
      </trkpt>
      <trkpt lat="43.61422" lon="3.7997">
        <ele>62.8</ele>
        <time>2022-05-10T08:44:57Z</time>
      </trkpt>
      <trkpt lat="43.61433" lon="3.80018">
        <ele>65.2</ele>
        <time>2022-05-10T08:45:07Z</time>
      </trkpt>
      <trkpt lat="43.61445" lon="3.80041">
        <ele>66</ele>
        <time>2022-05-10T08:45:17Z</time>
      </trkpt>
      <trkpt lat="43.61457" lon="3.80078">
        <ele>65.6</ele>
        <time>2022-05-10T08:45:27Z</time>
      </trkpt>
      <trkpt lat="43.61447" lon="3.80124">
        <ele>64.6</ele>
        <time>2022-05-10T08:45:37Z</time>
      </trkpt>
      <trkpt lat="43.61434" lon="3.80186">
        <ele>63.3</ele>
        <time>2022-05-10T08:45:47Z</time>
      </trkpt>
      <trkpt lat="43.61423" lon="3.80254">
        <ele>61.9</ele>
        <time>2022-05-10T08:45:57Z</time>
      </trkpt>
      <trkpt lat="43.61415" lon="3.80325">
        <ele>60.4</ele>
        <time>2022-05-10T08:46:07Z</time>
      </trkpt>
      <trkpt lat="43.61409" lon="3.80396">
        <ele>59.3</ele>
        <time>2022-05-10T08:46:17Z</time>
      </trkpt>
      <trkpt lat="43.61405" lon="3.80463">
        <ele>58.1</ele>
        <time>2022-05-10T08:46:27Z</time>
      </trkpt>
      <trkpt lat="43.614" lon="3.80541">
        <ele>57.3</ele>
        <time>2022-05-10T08:46:37Z</time>
      </trkpt>
      <trkpt lat="43.61397" lon="3.80617">
        <ele>56.1</ele>
        <time>2022-05-10T08:46:47Z</time>
      </trkpt>
      <trkpt lat="43.61388" lon="3.80692">
        <ele>54.9</ele>
        <time>2022-05-10T08:46:57Z</time>
      </trkpt>
      <trkpt lat="43.61381" lon="3.80763">
        <ele>54.6</ele>
        <time>2022-05-10T08:47:07Z</time>
      </trkpt>
      <trkpt lat="43.61382" lon="3.80841">
        <ele>54.5</ele>
        <time>2022-05-10T08:47:17Z</time>
      </trkpt>
      <trkpt lat="43.61387" lon="3.80916">
        <ele>54</ele>
        <time>2022-05-10T08:47:27Z</time>
      </trkpt>
      <trkpt lat="43.61393" lon="3.80989">
        <ele>51.7</ele>
        <time>2022-05-10T08:47:37Z</time>
      </trkpt>
      <trkpt lat="43.61416" lon="3.81058">
        <ele>50.9</ele>
        <time>2022-05-10T08:47:47Z</time>
      </trkpt>
      <trkpt lat="43.61406" lon="3.81112">
        <ele>49.6</ele>
        <time>2022-05-10T08:47:57Z</time>
      </trkpt>
      <trkpt lat="43.61405" lon="3.81185">
        <ele>47.8</ele>
        <time>2022-05-10T08:48:07Z</time>
      </trkpt>
      <trkpt lat="43.61407" lon="3.81265">
        <ele>46.1</ele>
        <time>2022-05-10T08:48:17Z</time>
      </trkpt>
      <trkpt lat="43.61423" lon="3.8134">
        <ele>44.2</ele>
        <time>2022-05-10T08:48:27Z</time>
      </trkpt>
      <trkpt lat="43.61442" lon="3.81388">
        <ele>44.7</ele>
        <time>2022-05-10T08:48:37Z</time>
      </trkpt>
      <trkpt lat="43.61463" lon="3.81446">
        <ele>43.6</ele>
        <time>2022-05-10T08:48:47Z</time>
      </trkpt>
      <trkpt lat="43.61477" lon="3.81511">
        <ele>41.3</ele>
        <time>2022-05-10T08:48:57Z</time>
      </trkpt>
      <trkpt lat="43.61496" lon="3.81564">
        <ele>39.2</ele>
        <time>2022-05-10T08:49:07Z</time>
      </trkpt>
      <trkpt lat="43.61509" lon="3.81639">
        <ele>37.3</ele>
        <time>2022-05-10T08:49:17Z</time>
      </trkpt>
      <trkpt lat="43.61528" lon="3.8171">
        <ele>32.4</ele>
        <time>2022-05-10T08:49:27Z</time>
      </trkpt>
      <trkpt lat="43.61547" lon="3.81782">
        <ele>36.1</ele>
        <time>2022-05-10T08:49:37Z</time>
      </trkpt>
      <trkpt lat="43.61562" lon="3.81831">
        <ele>37.7</ele>
        <time>2022-05-10T08:49:47Z</time>
      </trkpt>
      <trkpt lat="43.61575" lon="3.81891">
        <ele>38.7</ele>
        <time>2022-05-10T08:49:57Z</time>
      </trkpt>
      <trkpt lat="43.61589" lon="3.81943">
        <ele>39.2</ele>
        <time>2022-05-10T08:50:07Z</time>
      </trkpt>
      <trkpt lat="43.61573" lon="3.81975">
        <ele>39.6</ele>
        <time>2022-05-10T08:50:17Z</time>
      </trkpt>
      <trkpt lat="43.61554" lon="3.82023">
        <ele>39.8</ele>
        <time>2022-05-10T08:50:27Z</time>
      </trkpt>
      <trkpt lat="43.61554" lon="3.82074">
        <ele>43.9</ele>
        <time>2022-05-10T08:50:37Z</time>
      </trkpt>
      <trkpt lat="43.61548" lon="3.82129">
        <ele>42</ele>
        <time>2022-05-10T08:50:48Z</time>
      </trkpt>
      <trkpt lat="43.61544" lon="3.82169">
        <ele>43.2</ele>
        <time>2022-05-10T08:50:58Z</time>
      </trkpt>
      <trkpt lat="43.61532" lon="3.82211">
        <ele>44.8</ele>
        <time>2022-05-10T08:51:08Z</time>
      </trkpt>
      <trkpt lat="43.61526" lon="3.82252">
        <ele>46</ele>
        <time>2022-05-10T08:51:18Z</time>
      </trkpt>
      <trkpt lat="43.61523" lon="3.82286">
        <ele>46.9</ele>
        <time>2022-05-10T08:51:28Z</time>
      </trkpt>
      <trkpt lat="43.6152" lon="3.82311">
        <ele>47.2</ele>
        <time>2022-05-10T08:51:38Z</time>
      </trkpt>
      <trkpt lat="43.61515" lon="3.82357">
        <ele>49.8</ele>
        <time>2022-05-10T08:51:48Z</time>
      </trkpt>
      <trkpt lat="43.61509" lon="3.82396">
        <ele>50.3</ele>
        <time>2022-05-10T08:51:58Z</time>
      </trkpt>
      <trkpt lat="43.61493" lon="3.82396">
        <ele>49.7</ele>
        <time>2022-05-10T08:52:08Z</time>
      </trkpt>
      <trkpt lat="43.61325" lon="3.82326">
        <ele>52.9</ele>
        <time>2022-05-10T08:53:21.951Z</time>
      </trkpt>
      <trkpt lat="43.61316" lon="3.82345">
        <ele>51.9</ele>
        <time>2022-05-10T08:53:28.878Z</time>
      </trkpt>
      <trkpt lat="43.61309" lon="3.82461">
        <ele>50.9</ele>
        <time>2022-05-10T08:54:04.395Z</time>
      </trkpt>
      <trkpt lat="43.6124" lon="3.82542">
        <ele>54.2</ele>
        <time>2022-05-10T08:54:42.558Z</time>
      </trkpt>
      <trkpt lat="43.61215" lon="3.8257">
        <ele>55.3</ele>
        <time>2022-05-10T08:54:56.122Z</time>
      </trkpt>
      <trkpt lat="43.61198" lon="3.82605">
        <ele>55</ele>
        <time>2022-05-10T08:55:08.982Z</time>
      </trkpt>
      <trkpt lat="43.61177" lon="3.82763">
        <ele>55.3</ele>
        <time>2022-05-10T08:55:58Z</time>
      </trkpt>
    </trkseg>
  </trk>
</gpx>